Wetterdaten: Montag, 07.06.2021
Datum Zeit Temp. Aussen Temp. o. S. Temp +5cm Feuchte Auss Luftdruck Regen Sonnenschein Regendauer Solar Windben Empfang
07.06.2021 00:00 17,0 C 16,1 C 14,5 C 90 % 1023,6 hPa 0,0 l/m 0 min 0 min 0 W/m 9,7 km/h (2 Bft) 91,49 %
07.06.2021 00:02 16,9 C 16,1 C 14,5 C 90 % 1023,5 hPa 0,0 l/m 0 min 0 min 0 W/m 3,2 km/h (1 Bft) 92,86 %
07.06.2021 00:04 16,9 C 16,1 C 14,5 C 90 % 1023,6 hPa 0,0 l/m 0 min 0 min 0 W/m 3,2 km/h (1 Bft) 95,74 %
07.06.2021 00:08 16,9 C 16,1 C 14,5 C 90 % 1023,5 hPa 0,0 l/m 0 min 0 min 0 W/m 9,7 km/h (2 Bft) 93,62 %
07.06.2021 00:10 16,9 C 16,1 C 14,5 C 90 % 1023,5 hPa 0,0 l/m 0 min 0 min 0 W/m 3,2 km/h (1 Bft) 93,48 %
07.06.2021 00:12 16,9 C 16,1 C 14,5 C 90 % 1023,5 hPa 0,0 l/m 0 min 0 min 0 W/m 3,2 km/h (1 Bft) 93,62 %
07.06.2021 00:14 16,9 C 16,1 C 14,5 C 90 % 1023,5 hPa 0,0 l/m 0 min 0 min 0 W/m 9,7 km/h (2 Bft) 95,74 %
07.06.2021 00:16 16,9 C 16,1 C 14,5 C 90 % 1023,5 hPa 0,0 l/m 0 min 0 min 0 W/m 6,4 km/h (2 Bft) 95,74 %
07.06.2021 00:18 16,9 C 16,1 C 14,5 C 90 % 1023,5 hPa 0,0 l/m 0 min 0 min 0 W/m 12,9 km/h (3 Bft) 93,62 %
07.06.2021 00:20 16,9 C 16,1 C 14,5 C 90 % 1023,5 hPa 0,0 l/m 0 min 0 min 0 W/m 6,4 km/h (2 Bft) 93,62 %
07.06.2021 00:22 16,8 C 16,1 C 14,5 C 90 % 1023,5 hPa 0,0 l/m 0 min 0 min 0 W/m 6,4 km/h (2 Bft) 95,65 %
07.06.2021 00:24 16,8 C 16,1 C 14,5 C 90 % 1023,5 hPa 0,0 l/m 0 min 0 min 0 W/m 6,4 km/h (2 Bft) 95,74 %
07.06.2021 00:26 16,8 C 16,1 C 14,5 C 90 % 1023,5 hPa 0,0 l/m 0 min 0 min 0 W/m 12,9 km/h (3 Bft) 93,62 %
07.06.2021 00:28 16,8 C 16,1 C 14,5 C 90 % 1023,4 hPa 0,0 l/m 0 min 0 min 0 W/m 9,7 km/h (2 Bft) 93,62 %
07.06.2021 00:30 16,8 C 16,1 C 14,5 C 90 % 1023,4 hPa 0,0 l/m 0 min 0 min 0 W/m 12,9 km/h (3 Bft) 93,62 %
07.06.2021 00:32 16,8 C 16,1 C 14,5 C 90 % 1023,4 hPa 0,0 l/m 0 min 0 min 0 W/m 6,4 km/h (2 Bft) 97,83 %
07.06.2021 00:34 16,8 C 16,1 C 14,5 C 90 % 1023,5 hPa 0,0 l/m 0 min 0 min 0 W/m 12,9 km/h (3 Bft) 97,87 %
07.06.2021 00:36 16,8 C 16,1 C 14,5 C 90 % 1023,5 hPa 0,0 l/m 0 min 0 min 0 W/m 6,4 km/h (2 Bft) 97,87 %
07.06.2021 00:38 16,8 C 16,1 C 14,5 C 90 % 1023,5 hPa 0,0 l/m 0 min 0 min 0 W/m 9,7 km/h (2 Bft) 97,87 %
07.06.2021 00:40 16,7 C 16,1 C 14,5 C 90 % 1023,5 hPa 0,0 l/m 0 min 0 min 0 W/m 6,4 km/h (2 Bft) 95,74 %
07.06.2021 00:42 16,7 C 16,1 C 14,5 C 90 % 1023,5 hPa 0,0 l/m 0 min 0 min 0 W/m 6,4 km/h (2 Bft) 97,87 %
07.06.2021 00:44 16,7 C 16,1 C 14,5 C 90 % 1023,5 hPa 0,0 l/m 0 min 0 min 0 W/m 3,2 km/h (1 Bft) 97,87 %
07.06.2021 00:46 16,7 C 16,1 C 14,5 C 90 % 1023,5 hPa 0,0 l/m 0 min 0 min 0 W/m 6,4 km/h (2 Bft) 95,65 %
07.06.2021 00:48 16,7 C 16,1 C 14,5 C 90 % 1023,5 hPa 0,0 l/m 0 min 0 min 0 W/m 6,4 km/h (2 Bft) 95,74 %
07.06.2021 00:50 16,7 C 15,6 C 14,5 C 90 % 1023,5 hPa 0,0 l/m 0 min 0 min 0 W/m 12,9 km/h (3 Bft) 97,87 %
07.06.2021 00:52 16,7 C 15,6 C 14,5 C 90 % 1023,5 hPa 0,0 l/m 0 min 0 min 0 W/m 6,4 km/h (2 Bft) 97,87 %
07.06.2021 00:54 16,6 C 15,6 C 14,5 C 90 % 1023,5 hPa 0,0 l/m 0 min 0 min 0 W/m 9,7 km/h (2 Bft) 97,87 %
07.06.2021 00:56 16,7 C 15,6 C 14,5 C 90 % 1023,6 hPa 0,0 l/m 0 min 0 min 0 W/m 3,2 km/h (1 Bft) 97,87 %
07.06.2021 00:58 16,6 C 15,6 C 14,5 C 91 % 1023,6 hPa 0,0 l/m 0 min 0 min 0 W/m 9,7 km/h (2 Bft) 93,48 %
07.06.2021 01:00 16,6 C 15,6 C 14,5 C 91 % 1023,6 hPa 0,0 l/m 0 min 0 min 0 W/m 9,7 km/h (2 Bft) 97,87 %
07.06.2021 01:02 16,6 C 15,6 C 14,5 C 91 % 1023,6 hPa 0,0 l/m 0 min 0 min 0 W/m 9,7 km/h (2 Bft) 97,87 %
07.06.2021 01:04 16,6 C 15,6 C 14,5 C 91 % 1023,6 hPa 0,0 l/m 0 min 0 min 0 W/m 6,4 km/h (2 Bft) 97,87 %
07.06.2021 01:06 16,6 C 15,6 C 14,5 C 91 % 1023,5 hPa 0,0 l/m 0 min 0 min 0 W/m 9,7 km/h (2 Bft) 95,74 %
07.06.2021 01:08 16,6 C 15,6 C 14,5 C 91 % 1023,5 hPa 0,0 l/m 0 min 0 min 0 W/m 6,4 km/h (2 Bft) 97,83 %
07.06.2021 01:10 16,6 C 15,6 C 14,5 C 91 % 1023,6 hPa 0,0 l/m 0 min 0 min 0 W/m 6,4 km/h (2 Bft) 97,87 %
07.06.2021 01:12 16,6 C 15,6 C 14,5 C 91 % 1023,5 hPa 0,0 l/m 0 min 0 min 0 W/m 9,7 km/h (2 Bft) 97,87 %
07.06.2021 01:14 16,6 C 15,6 C 14,5 C 91 % 1023,5 hPa 0,0 l/m 0 min 0 min 0 W/m 6,4 km/h (2 Bft) 97,87 %
07.06.2021 01:16 16,5 C 15,6 C 14,5 C 91 % 1023,6 hPa 0,0 l/m 0 min 0 min 0 W/m 12,9 km/h (3 Bft) 97,87 %
07.06.2021 01:18 16,5 C 15,6 C 14,5 C 91 % 1023,6 hPa 0,0 l/m 0 min 0 min 0 W/m 12,9 km/h (3 Bft) 100,00 %
07.06.2021 01:20 16,5 C 15,6 C 14,5 C 91 % 1023,6 hPa 0,0 l/m 0 min 0 min 0 W/m 3,2 km/h (1 Bft) 100,00 %
07.06.2021 01:22 16,5 C 15,6 C 14,5 C 91 % 1023,6 hPa 0,0 l/m 0 min 0 min 0 W/m 9,7 km/h (2 Bft) 97,87 %
07.06.2021 01:24 16,5 C 15,6 C 14,5 C 91 % 1023,6 hPa 0,0 l/m 0 min 0 min 0 W/m 6,4 km/h (2 Bft) 100,00 %
07.06.2021 01:26 16,5 C 15,6 C 14,5 C 91 % 1023,6 hPa 0,0 l/m 0 min 0 min 0 W/m 12,9 km/h (3 Bft) 100,00 %
07.06.2021 01:28 16,5 C 15,6 C 14,5 C 91 % 1023,6 hPa 0,0 l/m 0 min 0 min 0 W/m 6,4 km/h (2 Bft) 100,00 %
07.06.2021 01:30 16,4 C 15,6 C 14,5 C 91 % 1023,6 hPa 0,0 l/m 0 min 0 min 0 W/m 6,4 km/h (2 Bft) 100,00 %
07.06.2021 01:32 16,4 C 15,6 C 14,5 C 91 % 1023,5 hPa 0,0 l/m 0 min 0 min 0 W/m 6,4 km/h (2 Bft) 97,83 %
07.06.2021 01:34 16,4 C 15,6 C 14,5 C 91 % 1023,5 hPa 0,0 l/m 0 min 0 min 0 W/m 12,9 km/h (3 Bft) 97,87 %
07.06.2021 01:36 16,4 C 15,6 C 13,9 C 91 % 1023,5 hPa 0,0 l/m 0 min 0 min 0 W/m 9,7 km/h (2 Bft) 100,00 %
07.06.2021 01:38 16,4 C 15,6 C 13,9 C 91 % 1023,5 hPa 0,0 l/m 0 min 0 min 0 W/m 12,9 km/h (3 Bft) 100,00 %
07.06.2021 01:40 16,4 C 15,6 C 13,9 C 91 % 1023,5 hPa 0,0 l/m 0 min 0 min 0 W/m 3,2 km/h (1 Bft) 97,87 %
07.06.2021 01:42 16,4 C 15,6 C 13,9 C 92 % 1023,5 hPa 0,0 l/m 0 min 0 min 0 W/m 9,7 km/h (2 Bft) 100,00 %
07.06.2021 01:44 16,4 C 15,6 C 13,9 C 92 % 1023,5 hPa 0,0 l/m 0 min 0 min 0 W/m 6,4 km/h (2 Bft) 100,00 %
07.06.2021 01:46 16,3 C 15,6 C 13,9 C 92 % 1023,5 hPa 0,0 l/m 0 min 0 min 0 W/m 3,2 km/h (1 Bft) 100,00 %
07.06.2021 01:48 16,3 C 15,6 C 13,9 C 92 % 1023,6 hPa 0,0 l/m 0 min 0 min 0 W/m 6,4 km/h (2 Bft) 100,00 %
07.06.2021 01:50 16,3 C 15,6 C 13,9 C 91 % 1023,5 hPa 0,0 l/m 0 min 0 min 0 W/m 9,7 km/h (2 Bft) 100,00 %
07.06.2021 01:52 16,3 C 15,6 C 13,9 C 91 % 1023,4 hPa 0,0 l/m 0 min 0 min 0 W/m 6,4 km/h (2 Bft) 97,87 %
07.06.2021 01:54 16,3 C 15,6 C 13,9 C 92 % 1023,5 hPa 0,0 l/m 0 min 0 min 0 W/m 6,4 km/h (2 Bft) 100,00 %
07.06.2021 01:56 16,3 C 15,6 C 13,9 C 92 % 1023,5 hPa 0,0 l/m 0 min 0 min 0 W/m 6,4 km/h (2 Bft) 100,00 %
07.06.2021 01:58 16,3 C 15,6 C 13,9 C 92 % 1023,5 hPa 0,0 l/m 0 min 0 min 0 W/m 6,4 km/h (2 Bft) 100,00 %
07.06.2021 02:00 16,3 C 15,6 C 13,9 C 92 % 1023,4 hPa 0,0 l/m 0 min 0 min 0 W/m 6,4 km/h (2 Bft) 100,00 %
07.06.2021 02:02 16,3 C 15,6 C 13,9 C 92 % 1023,4 hPa 0,0 l/m 0 min 0 min 0 W/m 3,2 km/h (1 Bft) 100,00 %
07.06.2021 02:04 16,2 C 15,6 C 13,9 C 92 % 1023,4 hPa 0,0 l/m 0 min 0 min 0 W/m 3,2 km/h (1 Bft) 97,87 %
07.06.2021 02:06 16,2 C 15,6 C 13,9 C 92 % 1023,5 hPa 0,0 l/m 0 min 0 min 0 W/m 6,4 km/h (2 Bft) 100,00 %
07.06.2021 02:08 16,2 C 15,0 C 13,9 C 92 % 1023,4 hPa 0,0 l/m 0 min 0 min 0 W/m 9,7 km/h (2 Bft) 100,00 %
07.06.2021 02:10 16,1 C 15,0 C 13,9 C 92 % 1023,4 hPa 0,0 l/m 0 min 0 min 0 W/m 6,4 km/h (2 Bft) 100,00 %
07.06.2021 02:12 16,1 C 15,0 C 13,9 C 92 % 1023,4 hPa 0,0 l/m 0 min 0 min 0 W/m 6,4 km/h (2 Bft) 100,00 %
07.06.2021 02:14 16,1 C 15,0 C 13,9 C 92 % 1023,4 hPa 0,0 l/m 0 min 0 min 0 W/m 6,4 km/h (2 Bft) 100,00 %
07.06.2021 02:16 16,1 C 15,0 C 13,9 C 92 % 1023,4 hPa 0,0 l/m 0 min 0 min 0 W/m 6,4 km/h (2 Bft) 100,00 %
07.06.2021 02:18 16,1 C 15,0 C 13,9 C 92 % 1023,4 hPa 0,0 l/m 0 min 0 min 0 W/m 9,7 km/h (2 Bft) 100,00 %
07.06.2021 02:20 16,1 C 15,0 C 13,9 C 92 % 1023,4 hPa 0,0 l/m 0 min 0 min 0 W/m 3,2 km/h (1 Bft) 100,00 %
07.06.2021 02:22 16,1 C 15,0 C 13,9 C 92 % 1023,4 hPa 0,0 l/m 0 min 0 min 0 W/m 6,4 km/h (2 Bft) 100,00 %
07.06.2021 02:24 16,1 C 15,0 C 13,9 C 92 % 1023,4 hPa 0,0 l/m 0 min 0 min 0 W/m 6,4 km/h (2 Bft) 100,00 %
07.06.2021 02:26 16,0 C 15,0 C 13,9 C 92 % 1023,4 hPa 0,0 l/m 0 min 0 min 0 W/m 6,4 km/h (2 Bft) 100,00 %
07.06.2021 02:28 16,0 C 15,0 C 13,9 C 92 % 1023,4 hPa 0,0 l/m 0 min 0 min 0 W/m 6,4 km/h (2 Bft) 100,00 %
07.06.2021 02:30 16,0 C 15,0 C 13,9 C 92 % 1023,4 hPa 0,0 l/m 0 min 0 min 0 W/m 6,4 km/h (2 Bft) 100,00 %
07.06.2021 02:32 16,0 C 15,0 C 13,9 C 92 % 1023,4 hPa 0,0 l/m 0 min 0 min 0 W/m 3,2 km/h (1 Bft) 100,00 %
07.06.2021 02:34 16,0 C 15,0 C 13,9 C 92 % 1023,4 hPa 0,0 l/m 0 min 0 min 0 W/m 6,4 km/h (2 Bft) 100,00 %
07.06.2021 02:36 16,0 C 15,0 C 13,9 C 92 % 1023,4 hPa 0,0 l/m 0 min 0 min 0 W/m 6,4 km/h (2 Bft) 100,00 %
07.06.2021 02:38 16,0 C 15,0 C 13,9 C 92 % 1023,4 hPa 0,0 l/m 0 min 0 min 0 W/m 9,7 km/h (2 Bft) 95,74 %
07.06.2021 02:40 15,9 C 15,0 C 13,9 C 92 % 1023,4 hPa 0,0 l/m 0 min 0 min 0 W/m 6,4 km/h (2 Bft) 97,87 %
07.06.2021 02:42 15,9 C 15,0 C 13,4 C 92 % 1023,4 hPa 0,0 l/m 0 min 0 min 0 W/m 3,2 km/h (1 Bft) 97,87 %
07.06.2021 02:44 15,9 C 15,0 C 13,4 C 92 % 1023,4 hPa 0,0 l/m 0 min 0 min 0 W/m 6,4 km/h (2 Bft) 97,83 %
07.06.2021 02:46 15,9 C 15,0 C 13,4 C 93 % 1023,4 hPa 0,0 l/m 0 min 0 min 0 W/m 6,4 km/h (2 Bft) 97,87 %
07.06.2021 02:48 15,9 C 15,0 C 13,4 C 93 % 1023,4 hPa 0,0 l/m 0 min 0 min 0 W/m 6,4 km/h (2 Bft) 95,74 %
07.06.2021 02:50 15,8 C 14,4 C 13,4 C 93 % 1023,3 hPa 0,0 l/m 0 min 0 min 0 W/m 3,2 km/h (1 Bft) 97,87 %
07.06.2021 02:52 15,8 C 14,4 C 13,4 C 93 % 1023,4 hPa 0,0 l/m 0 min 0 min 0 W/m 3,2 km/h (1 Bft) 97,87 %
07.06.2021 02:54 15,8 C 14,4 C 13,4 C 93 % 1023,4 hPa 0,0 l/m 0 min 0 min 0 W/m 3,2 km/h (1 Bft) 97,87 %
07.06.2021 02:56 15,8 C 14,4 C 13,4 C 93 % 1023,4 hPa 0,0 l/m 0 min 0 min 0 W/m 3,2 km/h (1 Bft) 95,65 %
07.06.2021 02:58 15,8 C 14,4 C 13,4 C 93 % 1023,4 hPa 0,0 l/m 0 min 0 min 0 W/m 0,0 km/h (0 Bft) 97,87 %
07.06.2021 03:00 15,7 C 14,4 C 13,4 C 93 % 1023,4 hPa 0,0 l/m 0 min 0 min 0 W/m 0,0 km/h (0 Bft) 97,87 %
07.06.2021 03:02 15,7 C 14,4 C 13,4 C 93 % 1023,4 hPa 0,0 l/m 0 min 0 min 0 W/m 0,0 km/h (0 Bft) 97,92 %
07.06.2021 03:04 15,7 C 14,4 C 13,4 C 93 % 1023,4 hPa 0,0 l/m 0 min 0 min 0 W/m 3,2 km/h (1 Bft) 95,74 %
07.06.2021 03:06 15,6 C 14,4 C 13,4 C 93 % 1023,4 hPa 0,0 l/m 0 min 0 min 0 W/m 3,2 km/h (1 Bft) 95,74 %
07.06.2021 03:08 15,6 C 14,4 C 13,4 C 93 % 1023,4 hPa 0,0 l/m 0 min 0 min 0 W/m 6,4 km/h (2 Bft) 95,65 %
07.06.2021 03:10 15,6 C 14,4 C 13,4 C 93 % 1023,4 hPa 0,0 l/m 0 min 0 min 0 W/m 3,2 km/h (1 Bft) 95,74 %
07.06.2021 03:12 15,6 C 14,4 C 13,4 C 93 % 1023,4 hPa 0,0 l/m 0 min 0 min 0 W/m 3,2 km/h (1 Bft) 97,87 %
07.06.2021 03:14 15,5 C 13,9 C 12,8 C 93 % 1023,4 hPa 0,0 l/m 0 min 0 min 0 W/m 3,2 km/h (1 Bft) 95,74 %
07.06.2021 03:16 15,5 C 13,9 C 12,8 C 93 % 1023,4 hPa 0,0 l/m 0 min 0 min 0 W/m 3,2 km/h (1 Bft) 95,74 %
07.06.2021 03:18 15,5 C 13,9 C 12,8 C 93 % 1023,4 hPa 0,0 l/m 0 min 0 min 0 W/m 0,0 km/h (0 Bft) 95,74 %
07.06.2021 03:20 15,5 C 13,9 C 12,8 C 93 % 1023,4 hPa 0,0 l/m 0 min 0 min 0 W/m 3,2 km/h (1 Bft) 95,65 %
07.06.2021 03:22 15,4 C 13,9 C 12,8 C 93 % 1023,4 hPa 0,0 l/m 0 min 0 min 0 W/m 3,2 km/h (1 Bft) 95,74 %
07.06.2021 03:24 15,4 C 13,9 C 12,8 C 93 % 1023,4 hPa 0,0 l/m 0 min 0 min 0 W/m 3,2 km/h (1 Bft) 95,74 %
07.06.2021 03:26 15,4 C 13,9 C 12,8 C 93 % 1023,4 hPa 0,0 l/m 0 min 0 min 0 W/m 3,2 km/h (1 Bft) 97,87 %
07.06.2021 03:28 15,4 C 13,9 C 12,8 C 94 % 1023,4 hPa 0,0 l/m 0 min 0 min 0 W/m 0,0 km/h (0 Bft) 97,87 %
07.06.2021 03:30 15,3 C 13,9 C 12,8 C 94 % 1023,4 hPa 0,0 l/m 0 min 0 min 0 W/m 0,0 km/h (0 Bft) 97,87 %
07.06.2021 03:32 15,3 C 13,9 C 12,8 C 93 % 1023,4 hPa 0,0 l/m 0 min 0 min 0 W/m 0,0 km/h (0 Bft) 95,74 %
07.06.2021 03:34 15,3 C 13,9 C 12,8 C 93 % 1023,4 hPa 0,0 l/m 0 min 0 min 0 W/m 0,0 km/h (0 Bft) 97,87 %
07.06.2021 03:36 15,2 C 13,9 C 12,8 C 93 % 1023,4 hPa 0,0 l/m 0 min 0 min 0 W/m 0,0 km/h (0 Bft) 95,74 %
07.06.2021 03:38 15,2 C 13,9 C 12,8 C 94 % 1023,4 hPa 0,0 l/m 0 min 0 min 0 W/m 0,0 km/h (0 Bft) 97,87 %
07.06.2021 03:40 15,2 C 13,9 C 12,8 C 94 % 1023,4 hPa 0,0 l/m 0 min 0 min 0 W/m 0,0 km/h (0 Bft) 95,74 %
07.06.2021 03:42 15,1 C 13,9 C 12,8 C 94 % 1023,4 hPa 0,0 l/m 0 min 0 min 0 W/m 0,0 km/h (0 Bft) 97,87 %
07.06.2021 03:44 15,1 C 13,9 C 13,4 C 94 % 1023,4 hPa 0,0 l/m 0 min 0 min 0 W/m 3,2 km/h (1 Bft) 95,65 %
07.06.2021 03:46 15,1 C 13,9 C 13,4 C 94 % 1023,5 hPa 0,0 l/m 0 min 0 min 0 W/m 0,0 km/h (0 Bft) 95,74 %
07.06.2021 03:48 15,1 C 13,9 C 13,4 C 94 % 1023,5 hPa 0,0 l/m 0 min 0 min 0 W/m 0,0 km/h (0 Bft) 97,87 %
07.06.2021 03:50 15,1 C 14,4 C 13,4 C 94 % 1023,5 hPa 0,0 l/m 0 min 0 min 0 W/m 0,0 km/h (0 Bft) 97,87 %
07.06.2021 03:52 15,1 C 14,4 C 13,4 C 94 % 1023,5 hPa 0,0 l/m 0 min 0 min 0 W/m 0,0 km/h (0 Bft) 95,74 %
07.06.2021 03:54 15,1 C 14,4 C 13,4 C 94 % 1023,4 hPa 0,0 l/m 0 min 0 min 0 W/m 3,2 km/h (1 Bft) 93,48 %
07.06.2021 03:56 15,1 C 14,4 C 13,4 C 95 % 1023,5 hPa 0,0 l/m 0 min 0 min 0 W/m 6,4 km/h (2 Bft) 97,87 %
07.06.2021 03:58 15,1 C 14,4 C 13,4 C 95 % 1023,4 hPa 0,0 l/m 0 min 0 min 0 W/m 6,4 km/h (2 Bft) 97,87 %
07.06.2021 04:00 15,1 C 14,4 C 13,4 C 95 % 1023,5 hPa 0,0 l/m 0 min 0 min 0 W/m 0,0 km/h (0 Bft) 95,74 %
07.06.2021 04:02 15,1 C 14,4 C 13,4 C 95 % 1023,5 hPa 0,0 l/m 0 min 0 min 0 W/m 3,2 km/h (1 Bft) 95,65 %
07.06.2021 04:04 15,0 C 14,4 C 13,4 C 95 % 1023,5 hPa 0,0 l/m 0 min 0 min 0 W/m 3,2 km/h (1 Bft) 97,87 %
07.06.2021 04:06 15,0 C 14,4 C 13,4 C 95 % 1023,5 hPa 0,0 l/m 0 min 0 min 0 W/m 6,4 km/h (2 Bft) 97,83 %
07.06.2021 04:08 15,0 C 14,4 C 13,4 C 95 % 1023,4 hPa 0,0 l/m 0 min 0 min 0 W/m 6,4 km/h (2 Bft) 97,87 %
07.06.2021 04:10 15,0 C 14,4 C 13,4 C 95 % 1023,4 hPa 0,0 l/m 0 min 0 min 0 W/m 3,2 km/h (1 Bft) 100,00 %
07.06.2021 04:12 15,0 C 14,4 C 13,4 C 95 % 1023,5 hPa 0,0 l/m 0 min 0 min 0 W/m 6,4 km/h (2 Bft) 100,00 %
07.06.2021 04:14 15,0 C 14,4 C 13,4 C 95 % 1023,5 hPa 0,0 l/m 0 min 0 min 0 W/m 3,2 km/h (1 Bft) 97,87 %
07.06.2021 04:16 15,0 C 14,4 C 13,4 C 95 % 1023,5 hPa 0,0 l/m 0 min 0 min 0 W/m 3,2 km/h (1 Bft) 97,87 %
07.06.2021 04:18 15,0 C 14,4 C 13,4 C 95 % 1023,4 hPa 0,0 l/m 0 min 0 min 0 W/m 6,4 km/h (2 Bft) 95,65 %
07.06.2021 04:20 15,0 C 13,9 C 13,4 C 95 % 1023,4 hPa 0,0 l/m 0 min 0 min 0 W/m 3,2 km/h (1 Bft) 95,74 %
07.06.2021 04:22 15,0 C 13,9 C 13,4 C 95 % 1023,4 hPa 0,0 l/m 0 min 0 min 0 W/m 3,2 km/h (1 Bft) 97,87 %
07.06.2021 04:24 15,0 C 13,9 C 12,8 C 95 % 1023,4 hPa 0,0 l/m 0 min 0 min 0 W/m 3,2 km/h (1 Bft) 97,87 %
07.06.2021 04:26 14,9 C 13,9 C 12,8 C 95 % 1023,4 hPa 0,0 l/m 0 min 0 min 0 W/m 3,2 km/h (1 Bft) 97,87 %
07.06.2021 04:28 14,9 C 13,9 C 12,8 C 95 % 1023,4 hPa 0,0 l/m 0 min 0 min 0 W/m 0,0 km/h (0 Bft) 97,87 %
07.06.2021 04:30 14,9 C 13,9 C 12,8 C 95 % 1023,4 hPa 0,0 l/m 0 min 0 min 0 W/m 0,0 km/h (0 Bft) 95,65 %
07.06.2021 04:32 14,9 C 13,9 C 12,8 C 95 % 1023,4 hPa 0,0 l/m 0 min 0 min 0 W/m 6,4 km/h (2 Bft) 97,87 %
07.06.2021 04:34 14,9 C 13,9 C 12,8 C 95 % 1023,4 hPa 0,0 l/m 0 min 0 min 0 W/m 3,2 km/h (1 Bft) 95,74 %
07.06.2021 04:36 14,8 C 13,9 C 12,8 C 95 % 1023,5 hPa 0,0 l/m 0 min 0 min 0 W/m 3,2 km/h (1 Bft) 97,87 %
07.06.2021 04:38 14,8 C 13,9 C 12,8 C 95 % 1023,4 hPa 0,0 l/m 0 min 0 min 0 W/m 3,2 km/h (1 Bft) 97,87 %
07.06.2021 04:40 14,8 C 13,3 C 12,8 C 95 % 1023,4 hPa 0,0 l/m 0 min 0 min 0 W/m 0,0 km/h (0 Bft) 97,87 %
07.06.2021 04:42 14,7 C 13,3 C 12,8 C 95 % 1023,4 hPa 0,0 l/m 0 min 0 min 0 W/m 3,2 km/h (1 Bft) 97,83 %
07.06.2021 04:44 14,7 C 13,3 C 12,8 C 95 % 1023,4 hPa 0,0 l/m 0 min 0 min 0 W/m 0,0 km/h (0 Bft) 97,87 %
07.06.2021 04:46 14,6 C 13,3 C 12,3 C 95 % 1023,4 hPa 0,0 l/m 0 min 0 min 0 W/m 3,2 km/h (1 Bft) 97,87 %
07.06.2021 04:48 14,6 C 13,3 C 12,3 C 95 % 1023,4 hPa 0,0 l/m 0 min 0 min 0 W/m 0,0 km/h (0 Bft) 97,87 %
07.06.2021 04:50 14,6 C 13,3 C 12,3 C 95 % 1023,4 hPa 0,0 l/m 0 min 0 min 0 W/m 3,2 km/h (1 Bft) 97,87 %
07.06.2021 04:52 14,6 C 13,3 C 12,3 C 95 % 1023,5 hPa 0,0 l/m 0 min 0 min 0 W/m 6,4 km/h (2 Bft) 97,87 %
07.06.2021 04:54 14,5 C 13,3 C 12,3 C 95 % 1023,4 hPa 0,0 l/m 0 min 0 min 0 W/m 6,4 km/h (2 Bft) 97,83 %
07.06.2021 04:56 14,5 C 13,3 C 12,3 C 95 % 1023,4 hPa 0,0 l/m 0 min 0 min 0 W/m 0,0 km/h (0 Bft) 100,00 %
07.06.2021 04:58 14,5 C 13,3 C 12,3 C 95 % 1023,4 hPa 0,0 l/m 0 min 0 min 0 W/m 0,0 km/h (0 Bft) 97,87 %
07.06.2021 05:00 14,5 C 13,3 C 12,3 C 95 % 1023,4 hPa 0,0 l/m 0 min 0 min 0 W/m 3,2 km/h (1 Bft) 97,87 %
07.06.2021 05:02 14,4 C 12,8 C 12,3 C 95 % 1023,4 hPa 0,0 l/m 0 min 0 min 0 W/m 3,2 km/h (1 Bft) 97,87 %
07.06.2021 05:04 14,4 C 12,8 C 12,3 C 95 % 1023,4 hPa 0,0 l/m 0 min 0 min 0 W/m 3,2 km/h (1 Bft) 97,87 %
07.06.2021 05:06 14,4 C 13,3 C 12,3 C 95 % 1023,4 hPa 0,0 l/m 0 min 0 min 0 W/m 3,2 km/h (1 Bft) 97,83 %
07.06.2021 05:08 14,3 C 12,8 C 12,3 C 95 % 1023,4 hPa 0,0 l/m 0 min 0 min 0 W/m 3,2 km/h (1 Bft) 95,74 %
07.06.2021 05:10 14,3 C 12,8 C 12,3 C 95 % 1023,4 hPa 0,0 l/m 0 min 0 min 0 W/m 3,2 km/h (1 Bft) 97,87 %
07.06.2021 05:12 14,3 C 13,3 C 12,3 C 95 % 1023,4 hPa 0,0 l/m 0 min 0 min 0 W/m 6,4 km/h (2 Bft) 97,87 %
07.06.2021 05:14 14,2 C 12,8 C 12,3 C 95 % 1023,4 hPa 0,0 l/m 0 min 0 min 0 W/m 3,2 km/h (1 Bft) 97,87 %
07.06.2021 05:16 14,2 C 12,8 C 12,3 C 95 % 1023,4 hPa 0,0 l/m 0 min 0 min 0 W/m 9,7 km/h (2 Bft) 97,87 %
07.06.2021 05:18 14,2 C 12,8 C 12,3 C 95 % 1023,4 hPa 0,0 l/m 0 min 0 min 0 W/m 3,2 km/h (1 Bft) 97,83 %
07.06.2021 05:20 14,2 C 12,8 C 12,3 C 95 % 1023,4 hPa 0,0 l/m 0 min 0 min 0 W/m 6,4 km/h (2 Bft) 97,87 %
07.06.2021 05:22 14,2 C 12,8 C 12,3 C 95 % 1023,4 hPa 0,0 l/m 0 min 0 min 0 W/m 3,2 km/h (1 Bft) 97,87 %
07.06.2021 05:24 14,2 C 12,8 C 12,3 C 96 % 1023,4 hPa 0,0 l/m 0 min 0 min 1 W/m 0,0 km/h (0 Bft) 97,87 %
07.06.2021 05:26 14,2 C 12,8 C 12,3 C 96 % 1023,4 hPa 0,0 l/m 0 min 0 min 5 W/m 0,0 km/h (0 Bft) 97,87 %
07.06.2021 05:28 14,2 C 12,8 C 12,3 C 96 % 1023,4 hPa 0,0 l/m 0 min 0 min 5 W/m 3,2 km/h (1 Bft) 97,87 %
07.06.2021 05:30 14,2 C 12,8 C 12,3 C 96 % 1023,4 hPa 0,0 l/m 0 min 0 min 5 W/m 3,2 km/h (1 Bft) 97,83 %
07.06.2021 05:32 14,2 C 12,8 C 12,3 C 96 % 1023,4 hPa 0,0 l/m 0 min 0 min 5 W/m 3,2 km/h (1 Bft) 97,87 %
07.06.2021 05:34 14,2 C 12,8 C 12,3 C 96 % 1023,4 hPa 0,0 l/m 0 min 0 min 7 W/m 3,2 km/h (1 Bft) 97,87 %
07.06.2021 05:36 14,2 C 12,8 C 12,3 C 96 % 1023,4 hPa 0,0 l/m 0 min 0 min 7 W/m 0,0 km/h (0 Bft) 97,87 %
07.06.2021 05:38 14,1 C 12,8 C 12,3 C 96 % 1023,4 hPa 0,0 l/m 0 min 0 min 7 W/m 3,2 km/h (1 Bft) 93,62 %
07.06.2021 05:40 14,1 C 12,8 C 12,3 C 96 % 1023,4 hPa 0,0 l/m 0 min 0 min 7 W/m 3,2 km/h (1 Bft) 93,62 %
07.06.2021 05:42 14,1 C 12,8 C 12,3 C 96 % 1023,4 hPa 0,0 l/m 0 min 0 min 9 W/m 3,2 km/h (1 Bft) 93,48 %
07.06.2021 05:44 14,1 C 13,3 C 12,3 C 96 % 1023,4 hPa 0,0 l/m 0 min 0 min 9 W/m 0,0 km/h (0 Bft) 95,74 %
07.06.2021 05:46 14,1 C 13,3 C 12,3 C 96 % 1023,4 hPa 0,0 l/m 0 min 0 min 10 W/m 0,0 km/h (0 Bft) 95,74 %
07.06.2021 05:48 14,0 C 13,3 C 12,3 C 96 % 1023,5 hPa 0,0 l/m 0 min 0 min 11 W/m 3,2 km/h (1 Bft) 95,74 %
07.06.2021 05:50 14,0 C 13,3 C 12,3 C 96 % 1023,5 hPa 0,0 l/m 0 min 0 min 12 W/m 0,0 km/h (0 Bft) 93,62 %
07.06.2021 05:52 14,0 C 13,3 C 12,3 C 96 % 1023,5 hPa 0,0 l/m 0 min 0 min 12 W/m 0,0 km/h (0 Bft) 93,48 %
07.06.2021 05:54 14,0 C 13,3 C 12,3 C 96 % 1023,5 hPa 0,0 l/m 0 min 0 min 12 W/m 3,2 km/h (1 Bft) 95,74 %
07.06.2021 05:56 14,0 C 13,3 C 12,3 C 96 % 1023,5 hPa 0,0 l/m 0 min 0 min 13 W/m 0,0 km/h (0 Bft) 93,62 %
07.06.2021 05:58 14,0 C 13,3 C 12,3 C 96 % 1023,5 hPa 0,0 l/m 0 min 0 min 14 W/m 3,2 km/h (1 Bft) 91,49 %
07.06.2021 06:00 14,1 C 13,3 C 12,3 C 96 % 1023,5 hPa 0,0 l/m 0 min 0 min 16 W/m 0,0 km/h (0 Bft) 93,62 %
07.06.2021 06:02 14,1 C 13,3 C 12,3 C 96 % 1023,5 hPa 0,0 l/m 0 min 0 min 18 W/m 0,0 km/h (0 Bft) 95,74 %
07.06.2021 06:04 14,1 C 13,3 C 12,8 C 96 % 1023,5 hPa 0,0 l/m 0 min 0 min 19 W/m 0,0 km/h (0 Bft) 95,65 %
07.06.2021 06:08 14,1 C 13,3 C 12,3 C 97 % 1023,5 hPa 0,0 l/m 0 min 0 min 22 W/m 3,2 km/h (1 Bft) 94,79 %
07.06.2021 06:10 14,1 C 13,3 C 12,3 C 97 % 1023,5 hPa 0,0 l/m 0 min 0 min 26 W/m 3,2 km/h (1 Bft) 95,74 %
07.06.2021 06:12 14,1 C 13,3 C 12,8 C 97 % 1023,6 hPa 0,0 l/m 0 min 0 min 26 W/m 3,2 km/h (1 Bft) 95,74 %
07.06.2021 06:14 14,1 C 13,3 C 12,8 C 97 % 1023,5 hPa 0,0 l/m 0 min 0 min 25 W/m 3,2 km/h (1 Bft) 95,74 %
07.06.2021 06:16 14,1 C 13,3 C 12,3 C 97 % 1023,5 hPa 0,0 l/m 0 min 0 min 23 W/m 3,2 km/h (1 Bft) 93,48 %
07.06.2021 06:18 14,1 C 13,3 C 12,8 C 97 % 1023,5 hPa 0,0 l/m 0 min 0 min 25 W/m 6,4 km/h (2 Bft) 93,62 %
07.06.2021 06:20 14,0 C 13,3 C 12,3 C 97 % 1023,5 hPa 0,0 l/m 0 min 0 min 28 W/m 3,2 km/h (1 Bft) 95,74 %
07.06.2021 06:22 14,0 C 13,3 C 12,8 C 97 % 1023,5 hPa 0,0 l/m 0 min 0 min 33 W/m 9,7 km/h (2 Bft) 95,74 %
07.06.2021 06:24 14,0 C 13,3 C 12,8 C 97 % 1023,5 hPa 0,0 l/m 0 min 0 min 33 W/m 3,2 km/h (1 Bft) 95,74 %
07.06.2021 06:26 14,0 C 13,3 C 12,8 C 97 % 1023,5 hPa 0,0 l/m 0 min 0 min 31 W/m 9,7 km/h (2 Bft) 95,74 %
07.06.2021 06:28 14,0 C 13,3 C 12,8 C 97 % 1023,6 hPa 0,0 l/m 0 min 0 min 27 W/m 6,4 km/h (2 Bft) 95,56 %
07.06.2021 06:30 14,1 C 13,9 C 12,8 C 97 % 1023,5 hPa 0,0 l/m 0 min 0 min 28 W/m 6,4 km/h (2 Bft) 95,74 %
07.06.2021 06:32 14,1 C 13,9 C 12,8 C 97 % 1023,5 hPa 0,0 l/m 0 min 0 min 28 W/m 6,4 km/h (2 Bft) 97,87 %
07.06.2021 06:34 14,1 C 13,9 C 12,8 C 97 % 1023,5 hPa 0,0 l/m 0 min 0 min 29 W/m 6,4 km/h (2 Bft) 95,74 %
07.06.2021 06:36 14,2 C 13,9 C 12,8 C 97 % 1023,5 hPa 0,0 l/m 0 min 0 min 36 W/m 3,2 km/h (1 Bft) 97,87 %
07.06.2021 06:38 14,2 C 13,9 C 12,8 C 97 % 1023,5 hPa 0,0 l/m 0 min 0 min 36 W/m 6,4 km/h (2 Bft) 95,74 %
07.06.2021 06:40 14,2 C 13,9 C 12,8 C 97 % 1023,5 hPa 0,0 l/m 0 min 0 min 37 W/m 6,4 km/h (2 Bft) 100,00 %
07.06.2021 06:42 14,2 C 13,9 C 12,8 C 97 % 1023,5 hPa 0,0 l/m 0 min 0 min 40 W/m 6,4 km/h (2 Bft) 100,00 %
07.06.2021 06:44 14,2 C 13,9 C 12,8 C 97 % 1023,5 hPa 0,0 l/m 0 min 0 min 42 W/m 6,4 km/h (2 Bft) 100,00 %
07.06.2021 06:46 14,2 C 13,9 C 13,4 C 97 % 1023,5 hPa 0,0 l/m 0 min 0 min 44 W/m 3,2 km/h (1 Bft) 100,00 %
07.06.2021 06:48 14,2 C 13,9 C 13,4 C 97 % 1023,5 hPa 0,0 l/m 0 min 0 min 46 W/m 6,4 km/h (2 Bft) 100,00 %
07.06.2021 06:50 14,2 C 13,9 C 13,4 C 97 % 1023,5 hPa 0,0 l/m 0 min 0 min 53 W/m 9,7 km/h (2 Bft) 100,00 %
07.06.2021 06:52 14,2 C 13,9 C 13,4 C 97 % 1023,6 hPa 0,0 l/m 0 min 0 min 56 W/m 6,4 km/h (2 Bft) 100,00 %
07.06.2021 06:54 14,2 C 14,4 C 13,4 C 97 % 1023,6 hPa 0,0 l/m 0 min 0 min 57 W/m 9,7 km/h (2 Bft) 100,00 %
07.06.2021 06:56 14,3 C 14,4 C 13,4 C 97 % 1023,6 hPa 0,0 l/m 0 min 0 min 65 W/m 9,7 km/h (2 Bft) 100,00 %
07.06.2021 06:58 14,3 C 14,4 C 13,4 C 98 % 1023,5 hPa 0,0 l/m 0 min 0 min 59 W/m 6,4 km/h (2 Bft) 100,00 %
07.06.2021 07:00 14,4 C 14,4 C 13,4 C 98 % 1023,5 hPa 0,0 l/m 0 min 0 min 53 W/m 12,9 km/h (3 Bft) 100,00 %
07.06.2021 07:02 14,4 C 14,4 C 13,4 C 98 % 1023,5 hPa 0,0 l/m 0 min 0 min 54 W/m 9,7 km/h (2 Bft) 97,87 %
07.06.2021 07:04 14,4 C 14,4 C 13,4 C 98 % 1023,6 hPa 0,0 l/m 0 min 0 min 55 W/m 12,9 km/h (3 Bft) 97,83 %
07.06.2021 07:06 14,4 C 14,4 C 13,4 C 98 % 1023,6 hPa 0,0 l/m 0 min 0 min 57 W/m 12,9 km/h (3 Bft) 97,87 %
07.06.2021 07:08 14,4 C 14,4 C 13,4 C 98 % 1023,6 hPa 0,0 l/m 0 min 0 min 60 W/m 6,4 km/h (2 Bft) 97,87 %
07.06.2021 07:10 14,4 C 14,4 C 13,4 C 98 % 1023,5 hPa 0,0 l/m 0 min 0 min 67 W/m 3,2 km/h (1 Bft) 100,00 %
07.06.2021 07:12 14,4 C 14,4 C 13,4 C 98 % 1023,6 hPa 0,0 l/m 0 min 0 min 70 W/m 12,9 km/h (3 Bft) 100,00 %
07.06.2021 07:14 14,4 C 14,4 C 13,4 C 98 % 1023,6 hPa 0,0 l/m 0 min 0 min 69 W/m 12,9 km/h (3 Bft) 100,00 %
07.06.2021 07:16 14,4 C 14,4 C 13,4 C 98 % 1023,6 hPa 0,0 l/m 0 min 0 min 71 W/m 9,7 km/h (2 Bft) 100,00 %
07.06.2021 07:18 14,4 C 14,4 C 13,4 C 98 % 1023,6 hPa 0,0 l/m 0 min 0 min 74 W/m 9,7 km/h (2 Bft) 100,00 %
07.06.2021 07:20 14,5 C 14,4 C 13,4 C 98 % 1023,6 hPa 0,0 l/m 0 min 0 min 69 W/m 9,7 km/h (2 Bft) 97,87 %
07.06.2021 07:22 14,5 C 14,4 C 13,4 C 98 % 1023,7 hPa 0,0 l/m 0 min 0 min 65 W/m 9,7 km/h (2 Bft) 100,00 %
07.06.2021 07:24 14,5 C 14,4 C 13,4 C 98 % 1023,6 hPa 0,0 l/m 0 min 0 min 65 W/m 12,9 km/h (3 Bft) 100,00 %
07.06.2021 07:26 14,5 C 14,4 C 13,4 C 97 % 1023,6 hPa 0,0 l/m 0 min 0 min 69 W/m 9,7 km/h (2 Bft) 100,00 %
07.06.2021 07:28 14,5 C 14,4 C 13,4 C 97 % 1023,6 hPa 0,0 l/m 0 min 0 min 76 W/m 9,7 km/h (2 Bft) 100,00 %
07.06.2021 07:30 14,5 C 14,4 C 13,9 C 97 % 1023,6 hPa 0,0 l/m 0 min 0 min 89 W/m 6,4 km/h (2 Bft) 100,00 %
07.06.2021 07:32 14,5 C 14,4 C 13,9 C 97 % 1023,6 hPa 0,0 l/m 0 min 0 min 91 W/m 9,7 km/h (2 Bft) 100,00 %
07.06.2021 07:34 14,5 C 14,4 C 13,9 C 97 % 1023,6 hPa 0,0 l/m 0 min 0 min 88 W/m 6,4 km/h (2 Bft) 100,00 %
07.06.2021 07:36 14,5 C 14,4 C 13,9 C 97 % 1023,6 hPa 0,0 l/m 0 min 0 min 86 W/m 9,7 km/h (2 Bft) 100,00 %
07.06.2021 07:38 14,5 C 14,4 C 13,9 C 97 % 1023,6 hPa 0,0 l/m 0 min 0 min 78 W/m 3,2 km/h (1 Bft) 100,00 %
07.06.2021 07:40 14,5 C 14,4 C 13,9 C 97 % 1023,6 hPa 0,0 l/m 0 min 0 min 76 W/m 6,4 km/h (2 Bft) 100,00 %
07.06.2021 07:42 14,5 C 14,4 C 13,9 C 97 % 1023,6 hPa 0,0 l/m 0 min 0 min 78 W/m 12,9 km/h (3 Bft) 100,00 %
07.06.2021 07:44 14,5 C 14,4 C 13,9 C 97 % 1023,7 hPa 0,0 l/m 0 min 0 min 81 W/m 9,7 km/h (2 Bft) 100,00 %
07.06.2021 07:46 14,5 C 14,4 C 13,4 C 97 % 1023,7 hPa 0,0 l/m 0 min 0 min 71 W/m 9,7 km/h (2 Bft) 100,00 %
07.06.2021 07:48 14,5 C 14,4 C 13,4 C 97 % 1023,7 hPa 0,0 l/m 0 min 0 min 73 W/m 9,7 km/h (2 Bft) 100,00 %
07.06.2021 07:50 14,5 C 14,4 C 13,4 C 97 % 1023,7 hPa 0,0 l/m 0 min 0 min 77 W/m 3,2 km/h (1 Bft) 100,00 %
07.06.2021 07:52 14,5 C 14,4 C 13,4 C 97 % 1023,7 hPa 0,0 l/m 0 min 0 min 81 W/m 6,4 km/h (2 Bft) 100,00 %
07.06.2021 07:54 14,5 C 14,4 C 13,4 C 97 % 1023,7 hPa 0,0 l/m 0 min 0 min 88 W/m 6,4 km/h (2 Bft) 100,00 %
07.06.2021 07:56 14,5 C 14,4 C 13,4 C 97 % 1023,7 hPa 0,0 l/m 0 min 0 min 87 W/m 6,4 km/h (2 Bft) 100,00 %
07.06.2021 07:58 14,5 C 14,4 C 13,9 C 97 % 1023,7 hPa 0,0 l/m 0 min 0 min 108 W/m 6,4 km/h (2 Bft) 97,87 %
07.06.2021 08:00 14,5 C 15,0 C 13,9 C 97 % 1023,7 hPa 0,0 l/m 0 min 0 min 125 W/m 6,4 km/h (2 Bft) 100,00 %
07.06.2021 08:02 14,6 C 15,0 C 13,9 C 97 % 1023,7 hPa 0,0 l/m 0 min 0 min 140 W/m 9,7 km/h (2 Bft) 100,00 %
07.06.2021 08:04 14,6 C 15,0 C 13,9 C 97 % 1023,7 hPa 0,0 l/m 0 min 0 min 166 W/m 9,7 km/h (2 Bft) 100,00 %
07.06.2021 08:06 14,6 C 15,0 C 14,5 C 97 % 1023,7 hPa 0,0 l/m 0 min 0 min 194 W/m 12,9 km/h (3 Bft) 100,00 %
07.06.2021 08:08 14,8 C 15,6 C 14,5 C 97 % 1023,7 hPa 0,0 l/m 0 min 0 min 190 W/m 12,9 km/h (3 Bft) 100,00 %
07.06.2021 08:10 14,8 C 15,6 C 14,5 C 97 % 1023,7 hPa 0,0 l/m 0 min 0 min 175 W/m 16,1 km/h (3 Bft) 97,87 %
07.06.2021 08:12 14,8 C 15,6 C 14,5 C 97 % 1023,7 hPa 0,0 l/m 0 min 0 min 197 W/m 9,7 km/h (2 Bft) 100,00 %
07.06.2021 08:14 14,9 C 15,6 C 14,5 C 96 % 1023,8 hPa 0,0 l/m 0 min 0 min 190 W/m 9,7 km/h (2 Bft) 97,83 %
07.06.2021 08:16 14,9 C 15,6 C 14,5 C 96 % 1023,7 hPa 0,0 l/m 0 min 0 min 174 W/m 9,7 km/h (2 Bft) 97,87 %
07.06.2021 08:18 15,0 C 15,6 C 14,5 C 96 % 1023,8 hPa 0,0 l/m 0 min 0 min 177 W/m 16,1 km/h (3 Bft) 100,00 %
07.06.2021 08:20 15,0 C 15,6 C 15,0 C 96 % 1023,8 hPa 0,0 l/m 0 min 0 min 181 W/m 6,4 km/h (2 Bft) 100,00 %
07.06.2021 08:22 15,0 C 16,1 C 15,0 C 96 % 1023,8 hPa 0,0 l/m 0 min 0 min 186 W/m 9,7 km/h (2 Bft) 100,00 %
07.06.2021 08:24 15,0 C 15,6 C 15,0 C 96 % 1023,8 hPa 0,0 l/m 0 min 0 min 188 W/m 12,9 km/h (3 Bft) 97,87 %
07.06.2021 08:26 15,1 C 15,6 C 15,0 C 96 % 1023,8 hPa 0,0 l/m 0 min 0 min 186 W/m 16,1 km/h (3 Bft) 97,83 %
07.06.2021 08:28 15,1 C 15,6 C 15,0 C 96 % 1023,8 hPa 0,0 l/m 0 min 0 min 205 W/m 12,9 km/h (3 Bft) 97,87 %
07.06.2021 08:30 15,1 C 15,6 C 15,0 C 95 % 1023,8 hPa 0,0 l/m 0 min 0 min 189 W/m 16,1 km/h (3 Bft) 100,00 %
07.06.2021 08:32 15,2 C 15,6 C 15,0 C 95 % 1023,8 hPa 0,0 l/m 0 min 0 min 177 W/m 9,7 km/h (2 Bft) 97,87 %
07.06.2021 08:34 15,2 C 15,6 C 14,5 C 95 % 1023,8 hPa 0,0 l/m 0 min 0 min 165 W/m 9,7 km/h (2 Bft) 95,74 %
07.06.2021 08:36 15,3 C 15,6 C 14,5 C 95 % 1023,8 hPa 0,0 l/m 0 min 0 min 176 W/m 16,1 km/h (3 Bft) 95,74 %
07.06.2021 08:38 15,3 C 15,6 C 14,5 C 94 % 1023,9 hPa 0,0 l/m 0 min 0 min 185 W/m 16,1 km/h (3 Bft) 97,83 %
07.06.2021 08:40 15,3 C 15,6 C 14,5 C 94 % 1023,9 hPa 0,0 l/m 0 min 0 min 193 W/m 6,4 km/h (2 Bft) 97,87 %
07.06.2021 08:42 15,3 C 15,6 C 14,5 C 94 % 1023,9 hPa 0,0 l/m 0 min 0 min 200 W/m 12,9 km/h (3 Bft) 97,87 %
07.06.2021 08:44 15,3 C 16,1 C 15,0 C 94 % 1023,9 hPa 0,0 l/m 0 min 0 min 235 W/m 9,7 km/h (2 Bft) 97,73 %
07.06.2021 08:46 15,4 C 16,1 C 15,0 C 94 % 1023,8 hPa 0,0 l/m 2 min 0 min 259 W/m 9,7 km/h (2 Bft) 95,74 %
07.06.2021 08:47 15,5 C 16,7 C 15,0 C 94 % 1023,8 hPa 0,0 l/m 1 min 0 min 266 W/m 9,7 km/h (2 Bft) 97,87 %
07.06.2021 08:50 15,5 C 16,7 C 15,6 C 94 % 1023,8 hPa 0,0 l/m 3 min 0 min 263 W/m 12,9 km/h (3 Bft) 95,65 %
07.06.2021 08:52 15,6 C 17,2 C 15,6 C 94 % 1023,8 hPa 0,0 l/m 0 min 0 min 255 W/m 12,9 km/h (3 Bft) 91,49 %
07.06.2021 08:54 15,7 C 17,2 C 15,6 C 93 % 1023,9 hPa 0,0 l/m 0 min 0 min 235 W/m 6,4 km/h (2 Bft) 95,74 %
07.06.2021 08:56 15,8 C 17,2 C 15,6 C 93 % 1023,9 hPa 0,0 l/m 0 min 0 min 221 W/m 12,9 km/h (3 Bft) 95,74 %
07.06.2021 08:58 15,8 C 16,7 C 15,6 C 93 % 1023,9 hPa 0,0 l/m 0 min 0 min 228 W/m 16,1 km/h (3 Bft) 95,74 %
07.06.2021 09:00 15,9 C 16,7 C 15,6 C 93 % 1023,9 hPa 0,0 l/m 0 min 0 min 232 W/m 12,9 km/h (3 Bft) 97,87 %
07.06.2021 09:02 15,9 C 16,7 C 15,6 C 92 % 1023,9 hPa 0,0 l/m 0 min 0 min 230 W/m 12,9 km/h (3 Bft) 95,65 %
07.06.2021 09:04 15,9 C 16,7 C 15,6 C 92 % 1023,9 hPa 0,0 l/m 0 min 0 min 230 W/m 12,9 km/h (3 Bft) 95,74 %
07.06.2021 09:06 16,0 C 16,7 C 15,6 C 92 % 1023,9 hPa 0,0 l/m 0 min 0 min 220 W/m 6,4 km/h (2 Bft) 95,74 %
07.06.2021 09:08 16,0 C 16,7 C 15,6 C 92 % 1023,9 hPa 0,0 l/m 0 min 0 min 216 W/m 9,7 km/h (2 Bft) 95,74 %
07.06.2021 09:10 16,1 C 16,7 C 15,6 C 92 % 1023,9 hPa 0,0 l/m 0 min 0 min 229 W/m 6,4 km/h (2 Bft) 93,62 %
07.06.2021 09:12 16,1 C 16,7 C 15,6 C 91 % 1024,0 hPa 0,0 l/m 0 min 0 min 268 W/m 9,7 km/h (2 Bft) 95,74 %
07.06.2021 09:14 16,2 C 17,2 C 15,6 C 91 % 1024,0 hPa 0,0 l/m 0 min 0 min 275 W/m 16,1 km/h (3 Bft) 95,65 %
07.06.2021 09:16 16,3 C 17,2 C 15,6 C 91 % 1024,0 hPa 0,0 l/m 0 min 0 min 264 W/m 9,7 km/h (2 Bft) 97,87 %
07.06.2021 09:18 16,3 C 17,2 C 15,6 C 91 % 1024,0 hPa 0,0 l/m 0 min 0 min 252 W/m 9,7 km/h (2 Bft) 95,74 %
07.06.2021 09:20 16,4 C 17,2 C 15,6 C 90 % 1024,0 hPa 0,0 l/m 0 min 0 min 235 W/m 6,4 km/h (2 Bft) 95,74 %
07.06.2021 09:22 16,4 C 16,7 C 15,6 C 90 % 1024,0 hPa 0,0 l/m 0 min 0 min 224 W/m 6,4 km/h (2 Bft) 97,87 %
07.06.2021 09:24 16,4 C 16,7 C 15,6 C 90 % 1024,0 hPa 0,0 l/m 0 min 0 min 220 W/m 3,2 km/h (1 Bft) 97,87 %
07.06.2021 09:26 16,4 C 16,7 C 15,6 C 90 % 1024,0 hPa 0,0 l/m 0 min 0 min 214 W/m 12,9 km/h (3 Bft) 97,83 %
07.06.2021 09:28 16,4 C 16,7 C 15,6 C 90 % 1024,0 hPa 0,0 l/m 0 min 0 min 218 W/m 9,7 km/h (2 Bft) 95,74 %
07.06.2021 09:30 16,4 C 17,2 C 15,6 C 90 % 1024,0 hPa 0,0 l/m 0 min 0 min 228 W/m 12,9 km/h (3 Bft) 97,87 %
07.06.2021 09:32 16,5 C 17,2 C 15,6 C 90 % 1024,0 hPa 0,0 l/m 0 min 0 min 252 W/m 16,1 km/h (3 Bft) 97,87 %
07.06.2021 09:34 16,5 C 17,2 C 16,1 C 90 % 1024,0 hPa 0,0 l/m 0 min 0 min 265 W/m 12,9 km/h (3 Bft) 98,00 %
07.06.2021 09:36 16,5 C 17,8 C 16,1 C 90 % 1024,0 hPa 0,0 l/m 0 min 0 min 282 W/m 16,1 km/h (3 Bft) 97,83 %
07.06.2021 09:38 16,6 C 17,8 C 16,1 C 90 % 1024,0 hPa 0,0 l/m 0 min 0 min 287 W/m 16,1 km/h (3 Bft) 97,87 %
07.06.2021 09:40 16,6 C 17,8 C 16,1 C 90 % 1024,0 hPa 0,0 l/m 0 min 0 min 313 W/m 12,9 km/h (3 Bft) 97,87 %
07.06.2021 09:42 16,7 C 18,3 C 16,1 C 90 % 1024,0 hPa 0,0 l/m 0 min 0 min 287 W/m 12,9 km/h (3 Bft) 97,87 %
07.06.2021 09:44 16,8 C 18,3 C 16,1 C 89 % 1024,0 hPa 0,0 l/m 0 min 0 min 291 W/m 9,7 km/h (2 Bft) 97,87 %
07.06.2021 09:46 16,8 C 18,3 C 16,1 C 89 % 1024,0 hPa 0,0 l/m 0 min 0 min 292 W/m 12,9 km/h (3 Bft) 97,56 %
07.06.2021 09:48 16,9 C 18,3 C 16,1 C 89 % 1024,0 hPa 0,0 l/m 0 min 0 min 275 W/m 6,4 km/h (2 Bft) 96,15 %
07.06.2021 09:50 16,9 C 18,3 C 16,7 C 89 % 1024,0 hPa 0,0 l/m 0 min 0 min 278 W/m 6,4 km/h (2 Bft) 100,00 %
07.06.2021 09:52 17,0 C 18,3 C 16,7 C 89 % 1024,0 hPa 0,0 l/m 0 min 0 min 304 W/m 6,4 km/h (2 Bft) 100,00 %
07.06.2021 09:54 17,0 C 18,3 C 16,7 C 89 % 1024,0 hPa 0,0 l/m 2 min 0 min 334 W/m 9,7 km/h (2 Bft) 97,87 %
07.06.2021 09:56 17,1 C 18,9 C 16,7 C 88 % 1024,0 hPa 0,0 l/m 0 min 0 min 316 W/m 9,7 km/h (2 Bft) 97,87 %
07.06.2021 09:58 17,1 C 18,9 C 16,7 C 88 % 1024,0 hPa 0,0 l/m 0 min 0 min 259 W/m 9,7 km/h (2 Bft) 97,87 %
07.06.2021 10:00 17,1 C 18,3 C 16,7 C 88 % 1024,0 hPa 0,0 l/m 0 min 0 min 228 W/m 6,4 km/h (2 Bft) 95,65 %
07.06.2021 10:02 17,2 C 18,3 C 16,7 C 88 % 1024,0 hPa 0,0 l/m 0 min 0 min 225 W/m 9,7 km/h (2 Bft) 97,56 %
07.06.2021 10:04 17,3 C 18,3 C 16,1 C 88 % 1023,9 hPa 0,0 l/m 0 min 0 min 217 W/m 6,4 km/h (2 Bft) 98,11 %
07.06.2021 10:06 17,3 C 18,3 C 16,1 C 87 % 1023,9 hPa 0,0 l/m 0 min 0 min 223 W/m 6,4 km/h (2 Bft) 97,87 %
07.06.2021 10:08 17,3 C 18,3 C 16,1 C 87 % 1023,9 hPa 0,0 l/m 0 min 0 min 269 W/m 9,7 km/h (2 Bft) 95,45 %
07.06.2021 10:10 17,4 C 18,9 C 17,3 C 87 % 1023,9 hPa 0,0 l/m 2 min 0 min 375 W/m 9,7 km/h (2 Bft) 95,74 %
07.06.2021 10:12 17,4 C 18,9 C 16,7 C 87 % 1023,9 hPa 0,0 l/m 0 min 0 min 325 W/m 6,4 km/h (2 Bft) 95,74 %
07.06.2021 10:14 17,4 C 18,9 C 16,7 C 87 % 1023,9 hPa 0,0 l/m 0 min 0 min 266 W/m 6,4 km/h (2 Bft) 97,83 %
07.06.2021 10:16 17,5 C 18,9 C 16,7 C 87 % 1023,9 hPa 0,0 l/m 0 min 0 min 251 W/m 9,7 km/h (2 Bft) 93,62 %
07.06.2021 10:18 17,5 C 18,9 C 16,7 C 87 % 1023,9 hPa 0,0 l/m 0 min 0 min 257 W/m 9,7 km/h (2 Bft) 97,87 %
07.06.2021 10:20 17,6 C 18,9 C 17,3 C 87 % 1023,9 hPa 0,0 l/m 0 min 0 min 337 W/m 9,7 km/h (2 Bft) 97,87 %
07.06.2021 10:22 17,6 C 19,4 C 17,8 C 87 % 1023,8 hPa 0,0 l/m 2 min 0 min 367 W/m 6,4 km/h (2 Bft) 97,87 %
07.06.2021 10:24 17,7 C 19,4 C 17,8 C 87 % 1023,8 hPa 0,0 l/m 0 min 0 min 346 W/m 6,4 km/h (2 Bft) 97,87 %
07.06.2021 10:26 17,8 C 20,0 C 18,4 C 87 % 1023,9 hPa 0,0 l/m 0 min 0 min 355 W/m 12,9 km/h (3 Bft) 97,83 %
07.06.2021 10:28 17,9 C 20,6 C 18,4 C 86 % 1023,9 hPa 0,0 l/m 2 min 0 min 434 W/m 12,9 km/h (3 Bft) 97,87 %
07.06.2021 10:30 18,0 C 20,6 C 17,8 C 86 % 1023,9 hPa 0,0 l/m 0 min 0 min 345 W/m 12,9 km/h (3 Bft) 97,87 %
07.06.2021 10:32 18,0 C 20,0 C 17,8 C 86 % 1023,9 hPa 0,0 l/m 0 min 0 min 324 W/m 6,4 km/h (2 Bft) 97,92 %
07.06.2021 10:34 18,1 C 20,0 C 17,8 C 85 % 1023,9 hPa 0,0 l/m 0 min 0 min 340 W/m 16,1 km/h (3 Bft) 97,87 %
07.06.2021 10:36 18,2 C 20,0 C 17,8 C 85 % 1023,9 hPa 0,0 l/m 2 min 0 min 373 W/m 19,3 km/h (3 Bft) 97,83 %
07.06.2021 10:38 18,3 C 20,0 C 17,8 C 85 % 1023,9 hPa 0,0 l/m 2 min 0 min 419 W/m 12,9 km/h (3 Bft) 97,87 %
07.06.2021 10:40 18,3 C 20,6 C 18,4 C 85 % 1023,9 hPa 0,0 l/m 2 min 0 min 482 W/m 9,7 km/h (2 Bft) 97,87 %
07.06.2021 10:42 18,4 C 20,6 C 17,8 C 85 % 1023,9 hPa 0,0 l/m 0 min 0 min 329 W/m 12,9 km/h (3 Bft) 97,87 %
07.06.2021 10:44 18,4 C 20,6 C 18,9 C 84 % 1023,8 hPa 0,0 l/m 0 min 0 min 318 W/m 12,9 km/h (3 Bft) 97,87 %
07.06.2021 10:46 18,5 C 20,6 C 19,5 C 84 % 1023,8 hPa 0,0 l/m 0 min 0 min 318 W/m 19,3 km/h (3 Bft) 97,87 %
07.06.2021 10:48 18,5 C 21,1 C 20,0 C 84 % 1023,8 hPa 0,0 l/m 0 min 0 min 321 W/m 9,7 km/h (2 Bft) 97,83 %
07.06.2021 10:50 18,6 C 21,7 C 20,6 C 83 % 1023,8 hPa 0,0 l/m 2 min 0 min 529 W/m 12,9 km/h (3 Bft) 97,87 %
07.06.2021 10:52 18,8 C 22,2 C 22,3 C 83 % 1023,9 hPa 0,0 l/m 2 min 0 min 879 W/m 9,7 km/h (2 Bft) 97,87 %
07.06.2021 10:54 18,9 C 22,8 C 22,3 C 83 % 1023,9 hPa 0,0 l/m 2 min 0 min 882 W/m 12,9 km/h (3 Bft) 95,74 %
07.06.2021 10:56 19,0 C 22,8 C 22,8 C 83 % 1023,8 hPa 0,0 l/m 2 min 0 min 905 W/m 9,7 km/h (2 Bft) 100,00 %
07.06.2021 10:58 19,1 C 22,8 C 21,7 C 82 % 1023,9 hPa 0,0 l/m 2 min 0 min 905 W/m 16,1 km/h (3 Bft) 97,87 %
07.06.2021 11:00 19,3 C 22,2 C 21,1 C 82 % 1023,8 hPa 0,0 l/m 0 min 0 min 381 W/m 16,1 km/h (3 Bft) 97,83 %
07.06.2021 11:02 19,4 C 22,2 C 20,6 C 82 % 1023,8 hPa 0,0 l/m 0 min 0 min 320 W/m 6,4 km/h (2 Bft) 100,00 %
07.06.2021 11:04 19,4 C 22,8 C 21,7 C 82 % 1023,9 hPa 0,0 l/m 2 min 0 min 498 W/m 9,7 km/h (2 Bft) 97,87 %
07.06.2021 11:06 19,5 C 22,2 C 20,6 C 81 % 1023,8 hPa 0,0 l/m 2 min 0 min 611 W/m 6,4 km/h (2 Bft) 97,87 %
07.06.2021 11:08 19,5 C 22,2 C 19,5 C 80 % 1023,8 hPa 0,0 l/m 0 min 0 min 308 W/m 16,1 km/h (3 Bft) 93,62 %
07.06.2021 11:10 19,6 C 21,1 C 18,9 C 80 % 1023,8 hPa 0,0 l/m 0 min 0 min 281 W/m 16,1 km/h (3 Bft) 93,62 %
07.06.2021 11:12 19,5 C 20,6 C 18,4 C 79 % 1023,8 hPa 0,0 l/m 0 min 0 min 268 W/m 16,1 km/h (3 Bft) 97,83 %
07.06.2021 11:14 19,5 C 20,0 C 17,8 C 79 % 1023,9 hPa 0,0 l/m 0 min 0 min 232 W/m 6,4 km/h (2 Bft) 97,87 %
07.06.2021 11:16 19,4 C 20,0 C 17,8 C 80 % 1023,8 hPa 0,0 l/m 0 min 0 min 219 W/m 9,7 km/h (2 Bft) 95,74 %
07.06.2021 11:18 19,4 C 20,0 C 17,3 C 80 % 1023,9 hPa 0,0 l/m 0 min 0 min 226 W/m 9,7 km/h (2 Bft) 95,74 %
07.06.2021 11:20 19,4 C 20,0 C 17,8 C 80 % 1023,8 hPa 0,0 l/m 0 min 0 min 271 W/m 9,7 km/h (2 Bft) 95,74 %
07.06.2021 11:22 19,4 C 21,1 C 19,5 C 80 % 1023,8 hPa 0,0 l/m 2 min 0 min 515 W/m 12,9 km/h (3 Bft) 97,87 %
07.06.2021 11:24 19,4 C 21,1 C 20,0 C 79 % 1023,9 hPa 0,0 l/m 2 min 0 min 945 W/m 12,9 km/h (3 Bft) 97,83 %
07.06.2021 11:26 19,5 C 22,2 C 21,7 C 80 % 1023,8 hPa 0,0 l/m 2 min 0 min 951 W/m 9,7 km/h (2 Bft) 97,87 %
07.06.2021 11:28 19,6 C 23,3 C 22,3 C 80 % 1023,9 hPa 0,0 l/m 2 min 0 min 886 W/m 16,1 km/h (3 Bft) 95,74 %
07.06.2021 11:30 19,8 C 23,3 C 22,3 C 79 % 1023,9 hPa 0,0 l/m 2 min 0 min 760 W/m 9,7 km/h (2 Bft) 97,87 %
07.06.2021 11:32 19,9 C 23,3 C 21,7 C 79 % 1023,8 hPa 0,0 l/m 2 min 0 min 759 W/m 9,7 km/h (2 Bft) 95,74 %
07.06.2021 11:34 20,0 C 22,8 C 20,6 C 78 % 1023,8 hPa 0,0 l/m 0 min 0 min 376 W/m 9,7 km/h (2 Bft) 97,87 %
07.06.2021 11:36 20,1 C 23,3 C 21,1 C 78 % 1023,8 hPa 0,0 l/m 0 min 0 min 361 W/m 12,9 km/h (3 Bft) 97,83 %
07.06.2021 11:38 20,1 C 23,9 C 21,1 C 77 % 1023,8 hPa 0,0 l/m 2 min 0 min 998 W/m 9,7 km/h (2 Bft) 97,87 %
07.06.2021 11:40 20,3 C 24,4 C 21,7 C 78 % 1023,8 hPa 0,0 l/m 2 min 0 min 1008 W/m 19,3 km/h (3 Bft) 97,87 %
07.06.2021 11:42 20,4 C 24,4 C 21,7 C 77 % 1023,8 hPa 0,0 l/m 2 min 0 min 990 W/m 16,1 km/h (3 Bft) 97,87 %
07.06.2021 11:44 20,5 C 23,3 C 21,1 C 76 % 1023,7 hPa 0,0 l/m 2 min 0 min 876 W/m 6,4 km/h (2 Bft) 97,87 %
07.06.2021 11:46 20,5 C 22,8 C 21,7 C 76 % 1023,7 hPa 0,0 l/m 2 min 0 min 610 W/m 6,4 km/h (2 Bft) 97,87 %
07.06.2021 11:48 20,5 C 22,8 C 21,1 C 76 % 1023,8 hPa 0,0 l/m 2 min 0 min 596 W/m 12,9 km/h (3 Bft) 100,00 %
07.06.2021 11:50 20,5 C 22,2 C 20,6 C 75 % 1023,8 hPa 0,0 l/m 0 min 0 min 312 W/m 9,7 km/h (2 Bft) 100,00 %
07.06.2021 11:52 20,6 C 21,7 C 19,5 C 76 % 1023,8 hPa 0,0 l/m 0 min 0 min 301 W/m 16,1 km/h (3 Bft) 97,87 %
07.06.2021 11:54 20,5 C 21,7 C 18,9 C 76 % 1023,8 hPa 0,0 l/m 0 min 0 min 327 W/m 12,9 km/h (3 Bft) 100,00 %
07.06.2021 11:56 20,6 C 22,2 C 20,6 C 76 % 1023,8 hPa 0,0 l/m 0 min 0 min 373 W/m 12,9 km/h (3 Bft) 100,00 %
07.06.2021 11:58 20,7 C 22,8 C 21,7 C 76 % 1023,8 hPa 0,0 l/m 2 min 0 min 975 W/m 12,9 km/h (3 Bft) 100,00 %
07.06.2021 12:00 20,8 C 22,8 C 20,6 C 75 % 1023,8 hPa 0,0 l/m 2 min 0 min 649 W/m 19,3 km/h (3 Bft) 100,00 %
07.06.2021 12:02 20,7 C 22,2 C 19,5 C 74 % 1023,8 hPa 0,0 l/m 0 min 0 min 293 W/m 16,1 km/h (3 Bft) 97,87 %
07.06.2021 12:04 20,7 C 21,1 C 18,9 C 74 % 1023,8 hPa 0,0 l/m 0 min 0 min 282 W/m 12,9 km/h (3 Bft) 100,00 %
07.06.2021 12:08 20,5 C 21,1 C 19,5 C 75 % 1023,8 hPa 0,0 l/m 0 min 0 min 331 W/m 12,9 km/h (3 Bft) 98,94 %
07.06.2021 12:10 20,5 C 21,1 C 18,9 C 75 % 1023,8 hPa 0,0 l/m 0 min 0 min 212 W/m 9,7 km/h (2 Bft) 100,00 %
07.06.2021 12:12 20,4 C 20,6 C 18,4 C 75 % 1023,7 hPa 0,0 l/m 0 min 0 min 161 W/m 9,7 km/h (2 Bft) 100,00 %
07.06.2021 12:14 20,3 C 20,0 C 17,8 C 75 % 1023,7 hPa 0,0 l/m 0 min 0 min 130 W/m 12,9 km/h (3 Bft) 100,00 %
07.06.2021 12:16 20,2 C 20,0 C 17,8 C 75 % 1023,7 hPa 0,0 l/m 0 min 0 min 112 W/m 12,9 km/h (3 Bft) 100,00 %
07.06.2021 12:18 20,1 C 20,0 C 17,3 C 76 % 1023,7 hPa 0,0 l/m 0 min 0 min 102 W/m 9,7 km/h (2 Bft) 97,87 %
07.06.2021 12:20 20,1 C 19,4 C 17,3 C 77 % 1023,7 hPa 0,0 l/m 0 min 0 min 101 W/m 9,7 km/h (2 Bft) 100,00 %
07.06.2021 12:22 20,0 C 19,4 C 17,3 C 76 % 1023,8 hPa 0,0 l/m 0 min 0 min 106 W/m 9,7 km/h (2 Bft) 97,83 %
07.06.2021 12:24 19,9 C 19,4 C 16,7 C 76 % 1023,8 hPa 0,0 l/m 0 min 0 min 113 W/m 12,9 km/h (3 Bft) 100,00 %
07.06.2021 12:26 19,8 C 18,9 C 16,7 C 77 % 1023,8 hPa 0,0 l/m 0 min 0 min 121 W/m 6,4 km/h (2 Bft) 100,00 %
07.06.2021 12:28 19,6 C 18,9 C 16,7 C 77 % 1023,8 hPa 0,0 l/m 0 min 0 min 130 W/m 19,3 km/h (3 Bft) 97,87 %
07.06.2021 12:30 19,5 C 18,9 C 16,7 C 77 % 1023,8 hPa 0,0 l/m 0 min 0 min 138 W/m 9,7 km/h (2 Bft) 100,00 %
07.06.2021 12:32 19,5 C 18,9 C 16,7 C 77 % 1023,8 hPa 0,0 l/m 0 min 0 min 146 W/m 12,9 km/h (3 Bft) 100,00 %
07.06.2021 12:34 19,5 C 18,9 C 16,7 C 77 % 1023,8 hPa 0,0 l/m 0 min 0 min 152 W/m 9,7 km/h (2 Bft) 95,65 %
07.06.2021 12:36 19,4 C 18,9 C 16,7 C 77 % 1023,8 hPa 0,0 l/m 0 min 0 min 160 W/m 9,7 km/h (2 Bft) 97,87 %
07.06.2021 12:38 19,4 C 18,9 C 16,7 C 78 % 1023,8 hPa 0,0 l/m 0 min 0 min 167 W/m 6,4 km/h (2 Bft) 97,87 %
07.06.2021 12:40 19,4 C 18,9 C 16,7 C 78 % 1023,8 hPa 0,0 l/m 0 min 0 min 169 W/m 6,4 km/h (2 Bft) 97,87 %
07.06.2021 12:42 19,4 C 19,4 C 16,7 C 78 % 1023,8 hPa 0,0 l/m 0 min 0 min 166 W/m 6,4 km/h (2 Bft) 95,74 %
07.06.2021 12:44 19,4 C 19,4 C 16,7 C 78 % 1023,8 hPa 0,0 l/m 0 min 0 min 165 W/m 12,9 km/h (3 Bft) 97,87 %
07.06.2021 12:46 19,4 C 19,4 C 16,7 C 78 % 1023,8 hPa 0,0 l/m 0 min 0 min 166 W/m 6,4 km/h (2 Bft) 97,83 %
07.06.2021 12:48 19,4 C 19,4 C 16,7 C 78 % 1023,8 hPa 0,0 l/m 0 min 0 min 169 W/m 12,9 km/h (3 Bft) 97,87 %
07.06.2021 12:50 19,4 C 19,4 C 16,7 C 78 % 1023,8 hPa 0,0 l/m 0 min 0 min 175 W/m 16,1 km/h (3 Bft) 97,87 %
07.06.2021 12:52 19,4 C 19,4 C 16,7 C 78 % 1023,8 hPa 0,0 l/m 0 min 0 min 185 W/m 9,7 km/h (2 Bft) 97,87 %
07.06.2021 12:54 19,4 C 19,4 C 16,7 C 78 % 1023,8 hPa 0,0 l/m 0 min 0 min 207 W/m 6,4 km/h (2 Bft) 97,87 %
07.06.2021 12:56 19,4 C 19,4 C 17,3 C 78 % 1023,7 hPa 0,0 l/m 0 min 0 min 234 W/m 9,7 km/h (2 Bft) 97,87 %
07.06.2021 12:58 19,4 C 20,0 C 17,3 C 78 % 1023,7 hPa 0,0 l/m 0 min 0 min 260 W/m 12,9 km/h (3 Bft) 97,83 %
07.06.2021 13:00 19,4 C 20,0 C 17,3 C 78 % 1023,7 hPa 0,0 l/m 0 min 0 min 285 W/m 6,4 km/h (2 Bft) 97,87 %
07.06.2021 13:02 19,5 C 20,0 C 17,3 C 78 % 1023,7 hPa 0,0 l/m 0 min 0 min 301 W/m 16,1 km/h (3 Bft) 97,87 %
07.06.2021 13:04 19,5 C 20,0 C 17,8 C 77 % 1023,7 hPa 0,0 l/m 0 min 0 min 314 W/m 9,7 km/h (2 Bft) 95,74 %
07.06.2021 13:06 19,5 C 20,0 C 17,8 C 77 % 1023,7 hPa 0,0 l/m 0 min 0 min 327 W/m 12,9 km/h (3 Bft) 97,87 %
07.06.2021 13:08 19,6 C 20,6 C 17,8 C 76 % 1023,7 hPa 0,0 l/m 0 min 0 min 331 W/m 9,7 km/h (2 Bft) 97,87 %
07.06.2021 13:10 19,6 C 20,6 C 17,8 C 77 % 1023,7 hPa 0,0 l/m 0 min 0 min 324 W/m 12,9 km/h (3 Bft) 97,83 %
07.06.2021 13:12 19,7 C 20,6 C 17,8 C 77 % 1023,7 hPa 0,0 l/m 0 min 0 min 325 W/m 9,7 km/h (2 Bft) 97,87 %
07.06.2021 13:14 19,8 C 20,6 C 17,8 C 77 % 1023,8 hPa 0,0 l/m 0 min 0 min 342 W/m 16,1 km/h (3 Bft) 97,87 %
07.06.2021 13:16 19,8 C 20,6 C 18,4 C 76 % 1023,8 hPa 0,0 l/m 0 min 0 min 362 W/m 12,9 km/h (3 Bft) 97,87 %
07.06.2021 13:18 19,9 C 20,6 C 18,4 C 76 % 1023,8 hPa 0,0 l/m 0 min 0 min 354 W/m 12,9 km/h (3 Bft) 97,87 %
07.06.2021 13:20 19,9 C 21,1 C 18,4 C 76 % 1023,7 hPa 0,0 l/m 0 min 0 min 340 W/m 12,9 km/h (3 Bft) 97,87 %
07.06.2021 13:22 20,0 C 21,1 C 18,4 C 76 % 1023,7 hPa 0,0 l/m 0 min 0 min 349 W/m 12,9 km/h (3 Bft) 95,65 %
07.06.2021 13:24 20,0 C 21,1 C 18,4 C 75 % 1023,7 hPa 0,0 l/m 0 min 0 min 364 W/m 16,1 km/h (3 Bft) 100,00 %
07.06.2021 13:26 20,0 C 21,1 C 18,4 C 75 % 1023,7 hPa 0,0 l/m 0 min 0 min 371 W/m 19,3 km/h (3 Bft) 95,74 %
07.06.2021 13:28 20,0 C 21,1 C 18,4 C 76 % 1023,7 hPa 0,0 l/m 0 min 0 min 373 W/m 9,7 km/h (2 Bft) 93,62 %
07.06.2021 13:30 20,1 C 21,7 C 18,4 C 76 % 1023,7 hPa 0,0 l/m 0 min 0 min 370 W/m 16,1 km/h (3 Bft) 97,87 %
07.06.2021 13:32 20,1 C 21,1 C 18,4 C 75 % 1023,7 hPa 0,0 l/m 0 min 0 min 367 W/m 16,1 km/h (3 Bft) 97,87 %
07.06.2021 13:34 20,2 C 21,1 C 18,4 C 75 % 1023,7 hPa 0,0 l/m 0 min 0 min 368 W/m 9,7 km/h (2 Bft) 97,83 %
07.06.2021 13:36 20,2 C 21,1 C 18,4 C 75 % 1023,7 hPa 0,0 l/m 0 min 0 min 364 W/m 16,1 km/h (3 Bft) 95,74 %
07.06.2021 13:38 20,2 C 21,1 C 18,4 C 75 % 1023,7 hPa 0,0 l/m 0 min 0 min 354 W/m 9,7 km/h (2 Bft) 93,62 %
07.06.2021 13:40 20,3 C 21,1 C 18,4 C 75 % 1023,7 hPa 0,0 l/m 0 min 0 min 342 W/m 16,1 km/h (3 Bft) 95,74 %
07.06.2021 13:42 20,3 C 21,1 C 18,4 C 75 % 1023,7 hPa 0,0 l/m 0 min 0 min 322 W/m 19,3 km/h (3 Bft) 93,62 %
07.06.2021 13:44 20,3 C 20,6 C 18,4 C 75 % 1023,7 hPa 0,0 l/m 0 min 0 min 297 W/m 9,7 km/h (2 Bft) 95,74 %
07.06.2021 13:46 20,3 C 20,6 C 17,8 C 75 % 1023,7 hPa 0,0 l/m 0 min 0 min 279 W/m 12,9 km/h (3 Bft) 93,48 %
07.06.2021 13:48 20,3 C 20,6 C 17,8 C 75 % 1023,7 hPa 0,0 l/m 0 min 0 min 264 W/m 9,7 km/h (2 Bft) 95,74 %
07.06.2021 13:50 20,2 C 20,6 C 17,8 C 75 % 1023,7 hPa 0,0 l/m 0 min 0 min 257 W/m 12,9 km/h (3 Bft) 93,62 %
07.06.2021 13:52 20,2 C 20,0 C 17,8 C 75 % 1023,7 hPa 0,0 l/m 0 min 0 min 263 W/m 9,7 km/h (2 Bft) 95,74 %
07.06.2021 13:54 20,1 C 20,6 C 17,8 C 75 % 1023,7 hPa 0,0 l/m 0 min 0 min 274 W/m 19,3 km/h (3 Bft) 95,74 %
07.06.2021 13:56 20,1 C 20,6 C 17,8 C 75 % 1023,7 hPa 0,0 l/m 0 min 0 min 282 W/m 16,1 km/h (3 Bft) 93,62 %
07.06.2021 13:58 20,1 C 20,6 C 17,8 C 74 % 1023,7 hPa 0,0 l/m 0 min 0 min 289 W/m 12,9 km/h (3 Bft) 95,65 %
07.06.2021 14:00 20,1 C 20,6 C 17,8 C 75 % 1023,7 hPa 0,0 l/m 0 min 0 min 286 W/m 12,9 km/h (3 Bft) 95,74 %
07.06.2021 14:02 20,1 C 20,6 C 17,8 C 75 % 1023,7 hPa 0,0 l/m 0 min 0 min 286 W/m 12,9 km/h (3 Bft) 93,62 %
07.06.2021 14:04 20,1 C 20,6 C 17,8 C 75 % 1023,8 hPa 0,0 l/m 0 min 0 min 290 W/m 12,9 km/h (3 Bft) 93,62 %
07.06.2021 14:06 20,0 C 20,6 C 17,8 C 75 % 1023,7 hPa 0,0 l/m 0 min 0 min 303 W/m 12,9 km/h (3 Bft) 95,74 %
07.06.2021 14:08 20,0 C 20,6 C 17,8 C 75 % 1023,7 hPa 0,0 l/m 0 min 0 min 318 W/m 12,9 km/h (3 Bft) 95,74 %
07.06.2021 14:10 20,0 C 20,6 C 17,8 C 76 % 1023,7 hPa 0,0 l/m 0 min 0 min 331 W/m 16,1 km/h (3 Bft) 95,65 %
07.06.2021 14:12 20,0 C 20,6 C 17,8 C 74 % 1023,7 hPa 0,0 l/m 0 min 0 min 340 W/m 16,1 km/h (3 Bft) 93,62 %
07.06.2021 14:14 20,0 C 20,6 C 17,8 C 75 % 1023,6 hPa 0,0 l/m 0 min 0 min 347 W/m 12,9 km/h (3 Bft) 95,74 %
07.06.2021 14:16 20,1 C 21,1 C 17,8 C 76 % 1023,6 hPa 0,0 l/m 0 min 0 min 356 W/m 6,4 km/h (2 Bft) 97,87 %
07.06.2021 14:18 20,1 C 21,1 C 18,4 C 76 % 1023,7 hPa 0,0 l/m 0 min 0 min 360 W/m 6,4 km/h (2 Bft) 95,74 %
07.06.2021 14:20 20,1 C 21,1 C 18,4 C 76 % 1023,6 hPa 0,0 l/m 0 min 0 min 371 W/m 9,7 km/h (2 Bft) 95,74 %
07.06.2021 14:22 20,2 C 21,1 C 18,4 C 75 % 1023,7 hPa 0,0 l/m 0 min 0 min 372 W/m 9,7 km/h (2 Bft) 100,00 %
07.06.2021 14:24 20,3 C 21,1 C 18,4 C 75 % 1023,7 hPa 0,0 l/m 0 min 0 min 362 W/m 9,7 km/h (2 Bft) 97,87 %
07.06.2021 14:26 20,3 C 21,1 C 18,4 C 74 % 1023,6 hPa 0,0 l/m 0 min 0 min 355 W/m 16,1 km/h (3 Bft) 97,87 %
07.06.2021 14:28 20,3 C 21,1 C 18,4 C 74 % 1023,6 hPa 0,0 l/m 0 min 0 min 361 W/m 19,3 km/h (3 Bft) 100,00 %
07.06.2021 14:30 20,3 C 21,1 C 18,4 C 74 % 1023,6 hPa 0,0 l/m 0 min 0 min 375 W/m 19,3 km/h (3 Bft) 100,00 %
07.06.2021 14:32 20,3 C 21,1 C 18,4 C 73 % 1023,6 hPa 0,0 l/m 0 min 0 min 397 W/m 19,3 km/h (3 Bft) 97,83 %
07.06.2021 14:34 20,3 C 21,1 C 18,4 C 74 % 1023,6 hPa 0,0 l/m 0 min 0 min 403 W/m 16,1 km/h (3 Bft) 100,00 %
07.06.2021 14:36 20,3 C 21,7 C 18,4 C 73 % 1023,6 hPa 0,0 l/m 0 min 0 min 407 W/m 12,9 km/h (3 Bft) 100,00 %
07.06.2021 14:38 20,3 C 21,1 C 18,4 C 72 % 1023,6 hPa 0,0 l/m 0 min 0 min 420 W/m 16,1 km/h (3 Bft) 100,00 %
07.06.2021 14:40 20,3 C 21,7 C 18,9 C 73 % 1023,6 hPa 0,0 l/m 2 min 0 min 444 W/m 16,1 km/h (3 Bft) 100,00 %
07.06.2021 14:42 20,4 C 22,2 C 18,9 C 73 % 1023,5 hPa 0,0 l/m 2 min 0 min 507 W/m 19,3 km/h (3 Bft) 95,74 %
07.06.2021 14:44 20,4 C 22,2 C 18,9 C 73 % 1023,5 hPa 0,0 l/m 2 min 0 min 485 W/m 9,7 km/h (2 Bft) 100,00 %
07.06.2021 14:46 20,5 C 22,2 C 18,9 C 73 % 1023,5 hPa 0,0 l/m 0 min 0 min 439 W/m 12,9 km/h (3 Bft) 100,00 %
07.06.2021 14:48 20,6 C 22,2 C 18,9 C 73 % 1023,5 hPa 0,0 l/m 0 min 0 min 426 W/m 12,9 km/h (3 Bft) 100,00 %
07.06.2021 14:50 20,6 C 22,2 C 18,9 C 73 % 1023,5 hPa 0,0 l/m 0 min 0 min 413 W/m 12,9 km/h (3 Bft) 100,00 %
07.06.2021 14:52 20,7 C 22,2 C 18,9 C 72 % 1023,5 hPa 0,0 l/m 0 min 0 min 383 W/m 16,1 km/h (3 Bft) 100,00 %
07.06.2021 14:54 20,7 C 22,2 C 18,9 C 71 % 1023,4 hPa 0,0 l/m 0 min 0 min 357 W/m 19,3 km/h (3 Bft) 100,00 %
07.06.2021 14:56 20,7 C 22,2 C 18,9 C 72 % 1023,4 hPa 0,0 l/m 0 min 0 min 335 W/m 12,9 km/h (3 Bft) 100,00 %
07.06.2021 14:58 20,7 C 21,7 C 18,4 C 72 % 1023,4 hPa 0,0 l/m 0 min 0 min 315 W/m 9,7 km/h (2 Bft) 100,00 %
07.06.2021 15:00 20,7 C 22,2 C 18,4 C 73 % 1023,4 hPa 0,0 l/m 0 min 0 min 297 W/m 9,7 km/h (2 Bft) 100,00 %
07.06.2021 15:02 20,7 C 21,7 C 18,4 C 73 % 1023,4 hPa 0,0 l/m 0 min 0 min 291 W/m 12,9 km/h (3 Bft) 100,00 %
07.06.2021 15:04 20,7 C 21,7 C 18,4 C 74 % 1023,4 hPa 0,0 l/m 0 min 0 min 314 W/m 9,7 km/h (2 Bft) 100,00 %
07.06.2021 15:06 20,7 C 21,7 C 18,4 C 74 % 1023,4 hPa 0,0 l/m 0 min 0 min 353 W/m 12,9 km/h (3 Bft) 97,87 %
07.06.2021 15:08 20,7 C 21,7 C 18,4 C 73 % 1023,5 hPa 0,0 l/m 0 min 0 min 373 W/m 16,1 km/h (3 Bft) 97,87 %
07.06.2021 15:10 20,7 C 21,7 C 18,4 C 73 % 1023,4 hPa 0,0 l/m 0 min 0 min 372 W/m 9,7 km/h (2 Bft) 100,00 %
07.06.2021 15:12 20,8 C 22,2 C 18,9 C 73 % 1023,5 hPa 0,0 l/m 0 min 0 min 374 W/m 9,7 km/h (2 Bft) 97,87 %
07.06.2021 15:14 20,8 C 22,2 C 18,9 C 74 % 1023,5 hPa 0,0 l/m 0 min 0 min 378 W/m 9,7 km/h (2 Bft) 100,00 %
07.06.2021 15:16 20,8 C 22,8 C 18,9 C 73 % 1023,5 hPa 0,0 l/m 0 min 0 min 362 W/m 9,7 km/h (2 Bft) 100,00 %
07.06.2021 15:18 20,8 C 22,2 C 18,9 C 73 % 1023,4 hPa 0,0 l/m 0 min 0 min 323 W/m 12,9 km/h (3 Bft) 100,00 %
07.06.2021 15:20 20,8 C 22,2 C 18,9 C 73 % 1023,4 hPa 0,0 l/m 0 min 0 min 302 W/m 9,7 km/h (2 Bft) 97,87 %
07.06.2021 15:22 20,8 C 22,2 C 18,4 C 73 % 1023,4 hPa 0,0 l/m 0 min 0 min 309 W/m 9,7 km/h (2 Bft) 100,00 %
07.06.2021 15:24 20,8 C 22,2 C 18,4 C 74 % 1023,5 hPa 0,0 l/m 0 min 0 min 325 W/m 6,4 km/h (2 Bft) 100,00 %
07.06.2021 15:26 20,8 C 21,7 C 18,4 C 73 % 1023,4 hPa 0,0 l/m 0 min 0 min 333 W/m 9,7 km/h (2 Bft) 100,00 %
07.06.2021 15:28 20,8 C 21,7 C 18,9 C 74 % 1023,4 hPa 0,0 l/m 0 min 0 min 359 W/m 9,7 km/h (2 Bft) 100,00 %
07.06.2021 15:30 20,8 C 22,2 C 18,9 C 73 % 1023,4 hPa 0,0 l/m 0 min 0 min 372 W/m 9,7 km/h (2 Bft) 100,00 %
07.06.2021 15:32 20,8 C 22,2 C 18,9 C 73 % 1023,4 hPa 0,0 l/m 0 min 0 min 356 W/m 9,7 km/h (2 Bft) 97,83 %
07.06.2021 15:34 20,8 C 22,2 C 18,9 C 74 % 1023,4 hPa 0,0 l/m 0 min 0 min 357 W/m 12,9 km/h (3 Bft) 100,00 %
07.06.2021 15:36 20,8 C 22,2 C 18,9 C 73 % 1023,4 hPa 0,0 l/m 0 min 0 min 302 W/m 6,4 km/h (2 Bft) 100,00 %
07.06.2021 15:38 20,8 C 22,2 C 18,4 C 74 % 1023,4 hPa 0,0 l/m 0 min 0 min 268 W/m 6,4 km/h (2 Bft) 100,00 %
07.06.2021 15:40 20,8 C 22,2 C 18,4 C 73 % 1023,4 hPa 0,0 l/m 0 min 0 min 238 W/m 6,4 km/h (2 Bft) 100,00 %
07.06.2021 15:42 20,8 C 22,2 C 18,4 C 74 % 1023,3 hPa 0,0 l/m 0 min 0 min 207 W/m 6,4 km/h (2 Bft) 97,87 %
07.06.2021 15:44 20,8 C 21,7 C 18,4 C 74 % 1023,4 hPa 0,0 l/m 0 min 0 min 189 W/m 6,4 km/h (2 Bft) 100,00 %
07.06.2021 15:46 20,7 C 21,7 C 17,8 C 73 % 1023,4 hPa 0,0 l/m 0 min 0 min 182 W/m 12,9 km/h (3 Bft) 100,00 %
07.06.2021 15:48 20,6 C 21,1 C 17,8 C 74 % 1023,4 hPa 0,0 l/m 0 min 0 min 187 W/m 12,9 km/h (3 Bft) 100,00 %
07.06.2021 15:50 20,5 C 21,1 C 17,8 C 74 % 1023,4 hPa 0,0 l/m 0 min 0 min 206 W/m 16,1 km/h (3 Bft) 97,87 %
07.06.2021 15:52 20,5 C 21,1 C 17,8 C 74 % 1023,4 hPa 0,0 l/m 0 min 0 min 233 W/m 9,7 km/h (2 Bft) 97,87 %
07.06.2021 15:54 20,5 C 21,1 C 17,8 C 74 % 1023,4 hPa 0,0 l/m 0 min 0 min 255 W/m 9,7 km/h (2 Bft) 97,87 %
07.06.2021 15:56 20,4 C 21,1 C 17,8 C 75 % 1023,4 hPa 0,0 l/m 0 min 0 min 271 W/m 6,4 km/h (2 Bft) 97,83 %
07.06.2021 15:58 20,4 C 21,1 C 17,8 C 75 % 1023,4 hPa 0,0 l/m 0 min 0 min 294 W/m 6,4 km/h (2 Bft) 97,87 %
07.06.2021 16:00 20,4 C 21,7 C 18,4 C 74 % 1023,4 hPa 0,0 l/m 0 min 0 min 316 W/m 3,2 km/h (1 Bft) 97,87 %
07.06.2021 16:02 20,4 C 21,7 C 18,4 C 75 % 1023,4 hPa 0,0 l/m 0 min 0 min 325 W/m 3,2 km/h (1 Bft) 97,87 %
07.06.2021 16:04 20,5 C 22,2 C 18,4 C 75 % 1023,3 hPa 0,0 l/m 0 min 0 min 316 W/m 9,7 km/h (2 Bft) 97,87 %
07.06.2021 16:06 20,5 C 22,2 C 18,4 C 75 % 1023,4 hPa 0,0 l/m 0 min 0 min 284 W/m 9,7 km/h (2 Bft) 97,87 %
07.06.2021 16:08 20,5 C 22,2 C 18,4 C 74 % 1023,4 hPa 0,0 l/m 0 min 0 min 261 W/m 9,7 km/h (2 Bft) 97,83 %
07.06.2021 16:10 20,5 C 21,7 C 18,4 C 74 % 1023,4 hPa 0,0 l/m 0 min 0 min 251 W/m 9,7 km/h (2 Bft) 97,87 %
07.06.2021 16:12 20,5 C 22,2 C 18,4 C 75 % 1023,3 hPa 0,0 l/m 0 min 0 min 251 W/m 6,4 km/h (2 Bft) 95,74 %
07.06.2021 16:14 20,5 C 21,7 C 18,4 C 75 % 1023,4 hPa 0,0 l/m 0 min 0 min 254 W/m 6,4 km/h (2 Bft) 95,74 %
07.06.2021 16:16 20,5 C 21,7 C 18,4 C 74 % 1023,4 hPa 0,0 l/m 0 min 0 min 257 W/m 6,4 km/h (2 Bft) 95,74 %
07.06.2021 16:18 20,5 C 21,7 C 18,4 C 74 % 1023,3 hPa 0,0 l/m 0 min 0 min 258 W/m 6,4 km/h (2 Bft) 95,74 %
07.06.2021 16:20 20,5 C 21,7 C 18,4 C 74 % 1023,3 hPa 0,0 l/m 0 min 0 min 259 W/m 16,1 km/h (3 Bft) 93,48 %
07.06.2021 16:22 20,5 C 21,7 C 18,4 C 74 % 1023,3 hPa 0,0 l/m 0 min 0 min 265 W/m 6,4 km/h (2 Bft) 95,74 %
07.06.2021 16:24 20,5 C 21,7 C 18,4 C 75 % 1023,3 hPa 0,0 l/m 0 min 0 min 273 W/m 12,9 km/h (3 Bft) 95,74 %
07.06.2021 16:26 20,5 C 21,7 C 18,4 C 75 % 1023,3 hPa 0,0 l/m 0 min 0 min 277 W/m 6,4 km/h (2 Bft) 95,74 %
07.06.2021 16:28 20,5 C 22,2 C 18,4 C 75 % 1023,3 hPa 0,0 l/m 0 min 0 min 278 W/m 6,4 km/h (2 Bft) 95,74 %
07.06.2021 16:30 20,6 C 22,2 C 18,4 C 75 % 1023,2 hPa 0,0 l/m 0 min 0 min 273 W/m 6,4 km/h (2 Bft) 95,74 %
07.06.2021 16:32 20,6 C 22,2 C 18,4 C 74 % 1023,3 hPa 0,0 l/m 0 min 0 min 265 W/m 6,4 km/h (2 Bft) 95,65 %
07.06.2021 16:34 20,6 C 21,7 C 18,4 C 74 % 1023,2 hPa 0,0 l/m 0 min 0 min 254 W/m 6,4 km/h (2 Bft) 95,74 %
07.06.2021 16:36 20,6 C 22,2 C 18,4 C 74 % 1023,2 hPa 0,0 l/m 0 min 0 min 242 W/m 3,2 km/h (1 Bft) 95,74 %
07.06.2021 16:38 20,7 C 21,7 C 18,4 C 75 % 1023,2 hPa 0,0 l/m 0 min 0 min 239 W/m 3,2 km/h (1 Bft) 95,74 %
07.06.2021 16:40 20,8 C 21,7 C 18,4 C 74 % 1023,2 hPa 0,0 l/m 0 min 0 min 242 W/m 6,4 km/h (2 Bft) 93,62 %
07.06.2021 16:42 20,8 C 21,7 C 18,4 C 74 % 1023,1 hPa 0,0 l/m 0 min 0 min 241 W/m 6,4 km/h (2 Bft) 95,74 %
07.06.2021 16:44 20,8 C 21,7 C 18,4 C 74 % 1023,1 hPa 0,0 l/m 0 min 0 min 237 W/m 9,7 km/h (2 Bft) 97,83 %
07.06.2021 16:46 20,8 C 21,7 C 18,4 C 74 % 1023,1 hPa 0,0 l/m 0 min 0 min 235 W/m 3,2 km/h (1 Bft) 95,74 %
07.06.2021 16:48 20,8 C 22,2 C 18,4 C 74 % 1023,1 hPa 0,0 l/m 0 min 0 min 233 W/m 6,4 km/h (2 Bft) 95,74 %
07.06.2021 16:50 20,8 C 22,2 C 18,4 C 75 % 1023,1 hPa 0,0 l/m 0 min 0 min 229 W/m 9,7 km/h (2 Bft) 97,87 %
07.06.2021 16:52 20,8 C 21,7 C 18,4 C 74 % 1023,1 hPa 0,0 l/m 0 min 0 min 230 W/m 6,4 km/h (2 Bft) 95,74 %
07.06.2021 16:54 20,8 C 21,7 C 18,4 C 74 % 1023,1 hPa 0,0 l/m 0 min 0 min 235 W/m 9,7 km/h (2 Bft) 97,87 %
07.06.2021 16:56 20,8 C 21,7 C 18,4 C 74 % 1023,1 hPa 0,0 l/m 0 min 0 min 241 W/m 6,4 km/h (2 Bft) 95,65 %
07.06.2021 16:58 20,8 C 21,7 C 18,4 C 73 % 1023,2 hPa 0,0 l/m 0 min 0 min 240 W/m 6,4 km/h (2 Bft) 97,87 %
07.06.2021 17:00 20,8 C 21,7 C 18,4 C 74 % 1023,1 hPa 0,0 l/m 0 min 0 min 231 W/m 3,2 km/h (1 Bft) 97,87 %
07.06.2021 17:02 20,8 C 21,7 C 18,4 C 73 % 1023,1 hPa 0,0 l/m 0 min 0 min 217 W/m 6,4 km/h (2 Bft) 97,87 %
07.06.2021 17:04 20,8 C 21,7 C 18,4 C 73 % 1023,1 hPa 0,0 l/m 0 min 0 min 205 W/m 3,2 km/h (1 Bft) 97,87 %
07.06.2021 17:06 20,8 C 21,7 C 18,4 C 74 % 1023,1 hPa 0,0 l/m 0 min 0 min 192 W/m 3,2 km/h (1 Bft) 97,87 %
07.06.2021 17:08 20,8 C 21,7 C 18,4 C 74 % 1023,1 hPa 0,0 l/m 0 min 0 min 183 W/m 6,4 km/h (2 Bft) 95,65 %
07.06.2021 17:10 20,8 C 21,7 C 18,4 C 74 % 1023,1 hPa 0,0 l/m 0 min 0 min 175 W/m 6,4 km/h (2 Bft) 97,87 %
07.06.2021 17:12 20,8 C 21,7 C 17,8 C 74 % 1023,1 hPa 0,0 l/m 0 min 0 min 173 W/m 6,4 km/h (2 Bft) 95,74 %
07.06.2021 17:14 20,8 C 21,1 C 17,8 C 74 % 1023,1 hPa 0,0 l/m 0 min 0 min 179 W/m 6,4 km/h (2 Bft) 97,87 %
07.06.2021 17:16 20,8 C 21,1 C 17,8 C 74 % 1023,1 hPa 0,0 l/m 0 min 0 min 193 W/m 6,4 km/h (2 Bft) 97,87 %
07.06.2021 17:18 20,8 C 21,1 C 17,8 C 74 % 1023,1 hPa 0,0 l/m 0 min 0 min 203 W/m 6,4 km/h (2 Bft) 97,83 %
07.06.2021 17:20 20,8 C 21,1 C 18,4 C 75 % 1023,0 hPa 0,0 l/m 0 min 0 min 214 W/m 6,4 km/h (2 Bft) 97,87 %
07.06.2021 17:22 20,8 C 21,7 C 18,4 C 75 % 1023,0 hPa 0,0 l/m 0 min 0 min 227 W/m 3,2 km/h (1 Bft) 97,87 %
07.06.2021 17:24 20,8 C 21,7 C 18,4 C 74 % 1023,0 hPa 0,0 l/m 0 min 0 min 240 W/m 6,4 km/h (2 Bft) 97,87 %
07.06.2021 17:26 20,8 C 21,7 C 18,4 C 74 % 1023,0 hPa 0,0 l/m 0 min 0 min 244 W/m 6,4 km/h (2 Bft) 97,87 %
07.06.2021 17:28 20,8 C 22,2 C 18,4 C 73 % 1023,0 hPa 0,0 l/m 0 min 0 min 243 W/m 3,2 km/h (1 Bft) 97,87 %
07.06.2021 17:30 20,8 C 23,3 C 18,4 C 73 % 1022,9 hPa 0,0 l/m 0 min 0 min 258 W/m 6,4 km/h (2 Bft) 97,83 %
07.06.2021 17:32 20,8 C 23,3 C 18,4 C 73 % 1022,9 hPa 0,0 l/m 2 min 0 min 451 W/m 3,2 km/h (1 Bft) 97,87 %
07.06.2021 17:34 20,9 C 23,9 C 18,4 C 73 % 1022,9 hPa 0,0 l/m 0 min 0 min 241 W/m 6,4 km/h (2 Bft) 97,87 %
07.06.2021 17:36 21,0 C 25,6 C 18,9 C 74 % 1022,9 hPa 0,0 l/m 2 min 0 min 484 W/m 6,4 km/h (2 Bft) 97,87 %
07.06.2021 17:38 21,1 C 26,1 C 18,9 C 73 % 1022,8 hPa 0,0 l/m 2 min 0 min 569 W/m 6,4 km/h (2 Bft) 97,87 %
07.06.2021 17:40 21,2 C 26,1 C 18,9 C 73 % 1022,8 hPa 0,0 l/m 2 min 0 min 589 W/m 3,2 km/h (1 Bft) 97,87 %
07.06.2021 17:42 21,4 C 27,2 C 18,9 C 71 % 1022,7 hPa 0,0 l/m 2 min 0 min 590 W/m 6,4 km/h (2 Bft) 100,00 %
07.06.2021 17:44 21,5 C 27,8 C 19,5 C 71 % 1022,8 hPa 0,0 l/m 2 min 0 min 603 W/m 3,2 km/h (1 Bft) 100,00 %
07.06.2021 17:46 21,7 C 27,2 C 19,5 C 71 % 1022,7 hPa 0,0 l/m 2 min 0 min 601 W/m 6,4 km/h (2 Bft) 100,00 %
07.06.2021 17:48 21,9 C 26,7 C 19,5 C 70 % 1022,6 hPa 0,0 l/m 2 min 0 min 591 W/m 6,4 km/h (2 Bft) 97,87 %
07.06.2021 17:50 22,0 C 25,6 C 19,5 C 70 % 1022,7 hPa 0,0 l/m 2 min 0 min 591 W/m 6,4 km/h (2 Bft) 100,00 %
07.06.2021 17:52 22,1 C 26,1 C 20,0 C 70 % 1022,6 hPa 0,0 l/m 2 min 0 min 605 W/m 12,9 km/h (3 Bft) 100,00 %
07.06.2021 17:54 22,2 C 27,2 C 20,0 C 70 % 1022,6 hPa 0,0 l/m 2 min 0 min 695 W/m 6,4 km/h (2 Bft) 100,00 %
07.06.2021 17:56 22,3 C 27,8 C 20,6 C 69 % 1022,6 hPa 0,0 l/m 2 min 0 min 680 W/m 9,7 km/h (2 Bft) 100,00 %
07.06.2021 17:58 22,4 C 27,2 C 20,0 C 69 % 1022,6 hPa 0,0 l/m 2 min 0 min 593 W/m 9,7 km/h (2 Bft) 97,87 %
07.06.2021 18:00 22,5 C 27,2 C 20,0 C 69 % 1022,5 hPa 0,0 l/m 2 min 0 min 648 W/m 12,9 km/h (3 Bft) 100,00 %
07.06.2021 18:02 22,6 C 26,7 C 20,0 C 68 % 1022,5 hPa 0,0 l/m 2 min 0 min 649 W/m 9,7 km/h (2 Bft) 100,00 %
07.06.2021 18:04 22,8 C 26,1 C 20,6 C 68 % 1022,5 hPa 0,0 l/m 2 min 0 min 649 W/m 6,4 km/h (2 Bft) 100,00 %
07.06.2021 18:08 22,9 C 25,6 C 20,0 C 67 % 1022,6 hPa 0,0 l/m 4 min 0 min 449 W/m 9,7 km/h (2 Bft) 98,92 %
07.06.2021 18:10 22,8 C 24,4 C 19,5 C 67 % 1022,6 hPa 0,0 l/m 0 min 0 min 177 W/m 9,7 km/h (2 Bft) 100,00 %
07.06.2021 18:12 22,6 C 23,3 C 19,5 C 67 % 1022,6 hPa 0,0 l/m 0 min 0 min 134 W/m 6,4 km/h (2 Bft) 97,87 %
07.06.2021 18:14 22,4 C 22,8 C 18,9 C 67 % 1022,6 hPa 0,0 l/m 0 min 0 min 114 W/m 6,4 km/h (2 Bft) 100,00 %
07.06.2021 18:16 22,3 C 22,8 C 18,9 C 68 % 1022,5 hPa 0,0 l/m 0 min 0 min 113 W/m 6,4 km/h (2 Bft) 100,00 %
07.06.2021 18:18 22,1 C 22,2 C 18,9 C 68 % 1022,6 hPa 0,0 l/m 0 min 0 min 115 W/m 6,4 km/h (2 Bft) 100,00 %
07.06.2021 18:20 22,1 C 22,2 C 18,4 C 69 % 1022,5 hPa 0,0 l/m 0 min 0 min 105 W/m 3,2 km/h (1 Bft) 100,00 %
07.06.2021 18:22 22,0 C 21,7 C 18,4 C 69 % 1022,5 hPa 0,0 l/m 0 min 0 min 107 W/m 6,4 km/h (2 Bft) 97,87 %
07.06.2021 18:24 21,8 C 22,2 C 18,4 C 70 % 1022,5 hPa 0,0 l/m 0 min 0 min 117 W/m 3,2 km/h (1 Bft) 97,87 %
07.06.2021 18:26 21,8 C 23,3 C 18,4 C 70 % 1022,5 hPa 0,0 l/m 0 min 0 min 219 W/m 6,4 km/h (2 Bft) 100,00 %
07.06.2021 18:28 21,7 C 23,9 C 18,9 C 70 % 1022,5 hPa 0,0 l/m 2 min 0 min 388 W/m 6,4 km/h (2 Bft) 100,00 %
07.06.2021 18:30 21,7 C 23,9 C 18,9 C 70 % 1022,5 hPa 0,0 l/m 2 min 0 min 410 W/m 6,4 km/h (2 Bft) 100,00 %
07.06.2021 18:32 21,6 C 22,8 C 18,4 C 70 % 1022,5 hPa 0,0 l/m 2 min 0 min 372 W/m 6,4 km/h (2 Bft) 100,00 %
07.06.2021 18:34 21,6 C 23,9 C 18,4 C 70 % 1022,5 hPa 0,0 l/m 0 min 0 min 182 W/m 6,4 km/h (2 Bft) 100,00 %
07.06.2021 18:36 21,6 C 25,0 C 18,9 C 70 % 1022,5 hPa 0,0 l/m 2 min 0 min 418 W/m 3,2 km/h (1 Bft) 100,00 %
07.06.2021 18:38 21,7 C 25,6 C 18,9 C 70 % 1022,5 hPa 0,0 l/m 2 min 0 min 406 W/m 6,4 km/h (2 Bft) 100,00 %
07.06.2021 18:40 21,8 C 24,4 C 18,9 C 69 % 1022,5 hPa 0,0 l/m 2 min 0 min 298 W/m 6,4 km/h (2 Bft) 100,00 %
07.06.2021 18:42 21,8 C 22,8 C 18,4 C 68 % 1022,5 hPa 0,0 l/m 0 min 0 min 87 W/m 9,7 km/h (2 Bft) 100,00 %
07.06.2021 18:44 21,8 C 23,3 C 18,4 C 69 % 1022,4 hPa 0,0 l/m 0 min 0 min 88 W/m 6,4 km/h (2 Bft) 100,00 %
07.06.2021 18:46 21,7 C 24,4 C 18,4 C 69 % 1022,5 hPa 0,0 l/m 0 min 0 min 163 W/m 3,2 km/h (1 Bft) 95,74 %
07.06.2021 18:48 21,8 C 25,6 C 18,9 C 69 % 1022,4 hPa 0,0 l/m 2 min 0 min 379 W/m 6,4 km/h (2 Bft) 97,87 %
07.06.2021 18:50 21,8 C 25,6 C 18,9 C 69 % 1022,4 hPa 0,0 l/m 2 min 0 min 381 W/m 3,2 km/h (1 Bft) 93,62 %
07.06.2021 18:52 21,8 C 26,1 C 18,9 C 69 % 1022,4 hPa 0,0 l/m 2 min 0 min 379 W/m 6,4 km/h (2 Bft) 97,83 %
07.06.2021 18:54 21,9 C 26,1 C 18,9 C 69 % 1022,4 hPa 0,0 l/m 2 min 0 min 375 W/m 6,4 km/h (2 Bft) 97,87 %
07.06.2021 18:56 21,9 C 26,1 C 18,9 C 68 % 1022,4 hPa 0,0 l/m 2 min 0 min 368 W/m 6,4 km/h (2 Bft) 95,74 %
07.06.2021 18:58 22,0 C 25,6 C 19,5 C 67 % 1022,4 hPa 0,0 l/m 2 min 0 min 356 W/m 6,4 km/h (2 Bft) 95,74 %
07.06.2021 19:00 22,0 C 24,4 C 18,9 C 68 % 1022,4 hPa 0,0 l/m 2 min 0 min 300 W/m 9,7 km/h (2 Bft) 97,87 %
07.06.2021 19:02 22,0 C 23,9 C 18,9 C 68 % 1022,4 hPa 0,0 l/m 2 min 0 min 200 W/m 6,4 km/h (2 Bft) 95,74 %
07.06.2021 19:04 22,0 C 23,3 C 18,9 C 68 % 1022,4 hPa 0,0 l/m 2 min 0 min 215 W/m 6,4 km/h (2 Bft) 95,65 %
07.06.2021 19:06 22,1 C 23,3 C 18,9 C 69 % 1022,4 hPa 0,0 l/m 2 min 0 min 264 W/m 6,4 km/h (2 Bft) 95,74 %
07.06.2021 19:08 22,1 C 23,3 C 18,9 C 69 % 1022,4 hPa 0,0 l/m 2 min 0 min 284 W/m 6,4 km/h (2 Bft) 93,62 %
07.06.2021 19:10 22,1 C 23,3 C 18,9 C 68 % 1022,4 hPa 0,0 l/m 2 min 0 min 318 W/m 3,2 km/h (1 Bft) 95,74 %
07.06.2021 19:12 22,1 C 22,8 C 18,9 C 68 % 1022,4 hPa 0,0 l/m 2 min 0 min 246 W/m 6,4 km/h (2 Bft) 95,74 %
07.06.2021 19:14 22,1 C 22,8 C 18,9 C 68 % 1022,3 hPa 0,0 l/m 0 min 0 min 151 W/m 3,2 km/h (1 Bft) 95,74 %
07.06.2021 19:16 22,1 C 22,2 C 18,4 C 68 % 1022,4 hPa 0,0 l/m 0 min 0 min 138 W/m 3,2 km/h (1 Bft) 93,48 %
07.06.2021 19:18 22,1 C 22,2 C 18,4 C 68 % 1022,4 hPa 0,0 l/m 0 min 0 min 130 W/m 12,9 km/h (3 Bft) 95,74 %
07.06.2021 19:20 22,0 C 21,7 C 18,4 C 68 % 1022,4 hPa 0,0 l/m 0 min 0 min 126 W/m 12,9 km/h (3 Bft) 95,74 %
07.06.2021 19:22 22,0 C 21,7 C 18,4 C 69 % 1022,4 hPa 0,0 l/m 0 min 0 min 127 W/m 3,2 km/h (1 Bft) 95,74 %
07.06.2021 19:24 22,0 C 21,1 C 18,4 C 69 % 1022,4 hPa 0,0 l/m 0 min 0 min 126 W/m 6,4 km/h (2 Bft) 93,62 %
07.06.2021 19:26 21,8 C 21,1 C 17,8 C 70 % 1022,4 hPa 0,0 l/m 0 min 0 min 147 W/m 9,7 km/h (2 Bft) 95,74 %
07.06.2021 19:28 21,7 C 21,1 C 17,8 C 70 % 1022,4 hPa 0,0 l/m 0 min 0 min 147 W/m 6,4 km/h (2 Bft) 93,48 %
07.06.2021 19:30 21,6 C 21,1 C 17,8 C 70 % 1022,4 hPa 0,0 l/m 0 min 0 min 146 W/m 6,4 km/h (2 Bft) 97,87 %
07.06.2021 19:32 21,6 C 21,1 C 17,8 C 70 % 1022,4 hPa 0,0 l/m 2 min 0 min 194 W/m 3,2 km/h (1 Bft) 97,87 %
07.06.2021 19:34 21,5 C 21,1 C 17,8 C 71 % 1022,4 hPa 0,0 l/m 0 min 0 min 151 W/m 3,2 km/h (1 Bft) 97,87 %
07.06.2021 19:36 21,5 C 21,1 C 17,8 C 72 % 1022,4 hPa 0,0 l/m 0 min 0 min 96 W/m 3,2 km/h (1 Bft) 97,87 %
07.06.2021 19:38 21,5 C 21,1 C 17,8 C 71 % 1022,4 hPa 0,0 l/m 0 min 0 min 126 W/m 3,2 km/h (1 Bft) 93,62 %
07.06.2021 19:40 21,4 C 21,1 C 17,8 C 71 % 1022,4 hPa 0,0 l/m 2 min 0 min 180 W/m 3,2 km/h (1 Bft) 97,83 %
07.06.2021 19:42 21,4 C 21,1 C 17,8 C 71 % 1022,4 hPa 0,0 l/m 0 min 0 min 112 W/m 3,2 km/h (1 Bft) 97,87 %
07.06.2021 19:44 21,3 C 20,6 C 17,8 C 71 % 1022,5 hPa 0,0 l/m 0 min 0 min 131 W/m 3,2 km/h (1 Bft) 97,87 %
07.06.2021 19:46 21,3 C 20,6 C 17,8 C 71 % 1022,4 hPa 0,0 l/m 0 min 0 min 100 W/m 3,2 km/h (1 Bft) 97,87 %
07.06.2021 19:48 21,2 C 20,6 C 17,8 C 71 % 1022,5 hPa 0,0 l/m 0 min 0 min 98 W/m 3,2 km/h (1 Bft) 97,87 %
07.06.2021 19:50 21,2 C 20,6 C 17,8 C 71 % 1022,4 hPa 0,0 l/m 0 min 0 min 99 W/m 3,2 km/h (1 Bft) 97,87 %
07.06.2021 19:52 21,1 C 20,6 C 17,8 C 71 % 1022,4 hPa 0,0 l/m 2 min 0 min 137 W/m 3,2 km/h (1 Bft) 100,00 %
07.06.2021 19:54 21,1 C 20,6 C 17,8 C 71 % 1022,5 hPa 0,0 l/m 0 min 0 min 103 W/m 3,2 km/h (1 Bft) 100,00 %
07.06.2021 19:56 21,1 C 20,6 C 17,8 C 71 % 1022,4 hPa 0,0 l/m 0 min 0 min 97 W/m 3,2 km/h (1 Bft) 95,74 %
07.06.2021 19:58 21,1 C 20,6 C 17,3 C 71 % 1022,4 hPa 0,0 l/m 0 min 0 min 95 W/m 3,2 km/h (1 Bft) 95,74 %
07.06.2021 20:00 21,0 C 20,6 C 17,3 C 72 % 1022,4 hPa 0,0 l/m 0 min 0 min 91 W/m 3,2 km/h (1 Bft) 97,87 %
07.06.2021 20:02 21,0 C 20,6 C 17,3 C 72 % 1022,4 hPa 0,0 l/m 0 min 0 min 84 W/m 3,2 km/h (1 Bft) 97,87 %
07.06.2021 20:04 21,0 C 20,0 C 17,3 C 72 % 1022,4 hPa 0,0 l/m 0 min 0 min 81 W/m 3,2 km/h (1 Bft) 97,83 %
07.06.2021 20:06 21,0 C 20,0 C 17,3 C 72 % 1022,3 hPa 0,0 l/m 0 min 0 min 81 W/m 6,4 km/h (2 Bft) 97,87 %
07.06.2021 20:08 20,9 C 20,0 C 17,3 C 73 % 1022,4 hPa 0,0 l/m 0 min 0 min 78 W/m 3,2 km/h (1 Bft) 97,87 %
07.06.2021 20:10 20,9 C 20,0 C 17,3 C 73 % 1022,4 hPa 0,0 l/m 0 min 0 min 72 W/m 3,2 km/h (1 Bft) 95,74 %
07.06.2021 20:12 20,9 C 20,0 C 17,3 C 73 % 1022,4 hPa 0,0 l/m 0 min 0 min 66 W/m 3,2 km/h (1 Bft) 97,87 %
07.06.2021 20:14 20,9 C 20,0 C 17,3 C 74 % 1022,4 hPa 0,0 l/m 0 min 0 min 62 W/m 3,2 km/h (1 Bft) 97,87 %
07.06.2021 20:16 20,8 C 20,0 C 17,3 C 74 % 1022,4 hPa 0,0 l/m 0 min 0 min 62 W/m 3,2 km/h (1 Bft) 97,83 %
07.06.2021 20:18 20,8 C 20,0 C 17,3 C 74 % 1022,4 hPa 0,0 l/m 0 min 0 min 63 W/m 3,2 km/h (1 Bft) 95,74 %
07.06.2021 20:20 20,8 C 20,0 C 17,3 C 74 % 1022,5 hPa 0,0 l/m 0 min 0 min 65 W/m 3,2 km/h (1 Bft) 97,87 %
07.06.2021 20:22 20,8 C 20,0 C 17,3 C 74 % 1022,5 hPa 0,0 l/m 0 min 0 min 67 W/m 3,2 km/h (1 Bft) 97,87 %
07.06.2021 20:24 20,7 C 20,0 C 17,3 C 74 % 1022,5 hPa 0,0 l/m 0 min 0 min 70 W/m 3,2 km/h (1 Bft) 97,87 %
07.06.2021 20:26 20,7 C 20,0 C 17,3 C 75 % 1022,4 hPa 0,0 l/m 0 min 0 min 72 W/m 3,2 km/h (1 Bft) 97,87 %
07.06.2021 20:28 20,7 C 20,0 C 17,3 C 76 % 1022,4 hPa 0,0 l/m 0 min 0 min 74 W/m 3,2 km/h (1 Bft) 97,83 %
07.06.2021 20:30 20,7 C 20,0 C 17,3 C 75 % 1022,4 hPa 0,0 l/m 0 min 0 min 74 W/m 3,2 km/h (1 Bft) 97,87 %
07.06.2021 20:32 20,6 C 20,0 C 17,3 C 75 % 1022,4 hPa 0,0 l/m 0 min 0 min 72 W/m 3,2 km/h (1 Bft) 97,87 %
07.06.2021 20:34 20,6 C 20,0 C 17,3 C 76 % 1022,4 hPa 0,0 l/m 0 min 0 min 67 W/m 0,0 km/h (0 Bft) 95,74 %
07.06.2021 20:36 20,6 C 20,0 C 17,3 C 76 % 1022,4 hPa 0,0 l/m 0 min 0 min 59 W/m 3,2 km/h (1 Bft) 97,87 %
07.06.2021 20:38 20,5 C 20,0 C 17,3 C 76 % 1022,4 hPa 0,0 l/m 0 min 0 min 49 W/m 0,0 km/h (0 Bft) 95,74 %
07.06.2021 20:40 20,5 C 20,0 C 16,7 C 76 % 1022,4 hPa 0,0 l/m 0 min 0 min 43 W/m 3,2 km/h (1 Bft) 97,83 %
07.06.2021 20:42 20,5 C 19,4 C 16,7 C 76 % 1022,4 hPa 0,0 l/m 0 min 0 min 41 W/m 0,0 km/h (0 Bft) 93,62 %
07.06.2021 20:44 20,4 C 19,4 C 16,7 C 76 % 1022,5 hPa 0,0 l/m 0 min 0 min 40 W/m 0,0 km/h (0 Bft) 95,74 %
07.06.2021 20:46 20,4 C 19,4 C 16,7 C 76 % 1022,4 hPa 0,0 l/m 0 min 0 min 39 W/m 0,0 km/h (0 Bft) 95,74 %
07.06.2021 20:48 20,4 C 19,4 C 16,7 C 77 % 1022,4 hPa 0,0 l/m 0 min 0 min 38 W/m 0,0 km/h (0 Bft) 97,87 %
07.06.2021 20:50 20,4 C 18,9 C 16,7 C 77 % 1022,5 hPa 0,0 l/m 0 min 0 min 37 W/m 0,0 km/h (0 Bft) 97,87 %
07.06.2021 20:52 20,3 C 18,9 C 16,1 C 78 % 1022,4 hPa 0,0 l/m 0 min 0 min 37 W/m 3,2 km/h (1 Bft) 97,83 %
07.06.2021 20:54 20,3 C 18,9 C 16,1 C 78 % 1022,5 hPa 0,0 l/m 0 min 0 min 36 W/m 3,2 km/h (1 Bft) 100,00 %
07.06.2021 20:56 20,3 C 18,9 C 16,1 C 78 % 1022,5 hPa 0,0 l/m 0 min 0 min 34 W/m 0,0 km/h (0 Bft) 100,00 %
07.06.2021 20:58 20,2 C 18,9 C 16,1 C 79 % 1022,5 hPa 0,0 l/m 0 min 0 min 36 W/m 0,0 km/h (0 Bft) 100,00 %
07.06.2021 21:00 20,1 C 18,9 C 16,1 C 79 % 1022,5 hPa 0,0 l/m 0 min 0 min 39 W/m 0,0 km/h (0 Bft) 100,00 %
07.06.2021 21:02 20,1 C 18,9 C 16,1 C 79 % 1022,5 hPa 0,0 l/m 0 min 0 min 34 W/m 0,0 km/h (0 Bft) 100,00 %
07.06.2021 21:04 20,1 C 18,9 C 16,1 C 79 % 1022,5 hPa 0,0 l/m 0 min 0 min 29 W/m 0,0 km/h (0 Bft) 100,00 %
07.06.2021 21:06 20,1 C 18,3 C 16,1 C 80 % 1022,5 hPa 0,0 l/m 0 min 0 min 27 W/m 0,0 km/h (0 Bft) 100,00 %
07.06.2021 21:08 20,0 C 18,3 C 16,1 C 80 % 1022,5 hPa 0,0 l/m 0 min 0 min 26 W/m 0,0 km/h (0 Bft) 100,00 %
07.06.2021 21:10 20,0 C 18,3 C 15,6 C 80 % 1022,5 hPa 0,0 l/m 0 min 0 min 25 W/m 0,0 km/h (0 Bft) 100,00 %
07.06.2021 21:12 20,0 C 18,3 C 15,6 C 80 % 1022,6 hPa 0,0 l/m 0 min 0 min 24 W/m 0,0 km/h (0 Bft) 100,00 %
07.06.2021 21:14 19,9 C 18,3 C 15,6 C 80 % 1022,5 hPa 0,0 l/m 0 min 0 min 21 W/m 0,0 km/h (0 Bft) 100,00 %
07.06.2021 21:16 19,9 C 17,8 C 15,6 C 81 % 1022,6 hPa 0,0 l/m 0 min 0 min 20 W/m 0,0 km/h (0 Bft) 100,00 %
07.06.2021 21:18 19,8 C 17,8 C 15,6 C 80 % 1022,6 hPa 0,0 l/m 0 min 0 min 18 W/m 0,0 km/h (0 Bft) 100,00 %
07.06.2021 21:20 19,8 C 17,8 C 15,6 C 80 % 1022,6 hPa 0,0 l/m 0 min 0 min 16 W/m 0,0 km/h (0 Bft) 97,87 %
07.06.2021 21:22 19,7 C 17,8 C 15,6 C 81 % 1022,6 hPa 0,0 l/m 0 min 0 min 16 W/m 0,0 km/h (0 Bft) 97,87 %
07.06.2021 21:24 19,6 C 17,8 C 15,6 C 81 % 1022,6 hPa 0,0 l/m 0 min 0 min 14 W/m 0,0 km/h (0 Bft) 95,74 %
07.06.2021 21:26 19,6 C 17,8 C 15,6 C 81 % 1022,6 hPa 0,0 l/m 0 min 0 min 12 W/m 0,0 km/h (0 Bft) 97,87 %
07.06.2021 21:28 19,5 C 17,2 C 15,0 C 81 % 1022,6 hPa 0,0 l/m 0 min 0 min 12 W/m 0,0 km/h (0 Bft) 97,83 %
07.06.2021 21:30 19,5 C 17,2 C 15,0 C 81 % 1022,6 hPa 0,0 l/m 0 min 0 min 11 W/m 0,0 km/h (0 Bft) 97,87 %
07.06.2021 21:32 19,5 C 17,2 C 15,0 C 82 % 1022,6 hPa 0,0 l/m 0 min 0 min 11 W/m 0,0 km/h (0 Bft) 95,74 %
07.06.2021 21:34 19,4 C 17,2 C 15,0 C 82 % 1022,6 hPa 0,0 l/m 0 min 0 min 9 W/m 0,0 km/h (0 Bft) 95,74 %
07.06.2021 21:36 19,3 C 17,2 C 15,0 C 82 % 1022,6 hPa 0,0 l/m 0 min 0 min 9 W/m 0,0 km/h (0 Bft) 97,87 %
07.06.2021 21:38 19,3 C 17,2 C 15,0 C 82 % 1022,7 hPa 0,0 l/m 0 min 0 min 7 W/m 0,0 km/h (0 Bft) 97,87 %
07.06.2021 21:40 19,2 C 16,7 C 15,0 C 82 % 1022,7 hPa 0,0 l/m 0 min 0 min 7 W/m 0,0 km/h (0 Bft) 97,83 %
07.06.2021 21:42 19,1 C 16,7 C 15,0 C 83 % 1022,8 hPa 0,0 l/m 0 min 0 min 6 W/m 0,0 km/h (0 Bft) 93,62 %
07.06.2021 21:44 19,0 C 16,7 C 14,5 C 83 % 1022,8 hPa 0,0 l/m 0 min 0 min 5 W/m 0,0 km/h (0 Bft) 97,87 %
07.06.2021 21:46 19,0 C 16,7 C 14,5 C 83 % 1022,8 hPa 0,0 l/m 0 min 0 min 5 W/m 0,0 km/h (0 Bft) 97,87 %
07.06.2021 21:48 18,9 C 16,7 C 14,5 C 83 % 1022,8 hPa 0,0 l/m 0 min 0 min 4 W/m 0,0 km/h (0 Bft) 95,74 %
07.06.2021 21:50 18,9 C 16,7 C 14,5 C 83 % 1022,8 hPa 0,0 l/m 0 min 0 min 0 W/m 0,0 km/h (0 Bft) 95,74 %
07.06.2021 21:52 18,8 C 16,7 C 14,5 C 84 % 1022,9 hPa 0,0 l/m 0 min 0 min 0 W/m 0,0 km/h (0 Bft) 91,30 %
07.06.2021 21:54 18,7 C 16,7 C 14,5 C 84 % 1022,9 hPa 0,0 l/m 0 min 0 min 0 W/m 0,0 km/h (0 Bft) 93,62 %
07.06.2021 21:56 18,6 C 16,1 C 14,5 C 84 % 1022,9 hPa 0,0 l/m 0 min 0 min 0 W/m 0,0 km/h (0 Bft) 95,74 %
07.06.2021 21:58 18,5 C 16,1 C 14,5 C 84 % 1022,9 hPa 0,0 l/m 0 min 0 min 0 W/m 0,0 km/h (0 Bft) 95,74 %
07.06.2021 22:00 18,5 C 16,1 C 14,5 C 84 % 1022,9 hPa 0,0 l/m 0 min 0 min 0 W/m 0,0 km/h (0 Bft) 95,74 %
07.06.2021 22:02 18,4 C 16,1 C 13,9 C 84 % 1022,9 hPa 0,0 l/m 0 min 0 min 0 W/m 0,0 km/h (0 Bft) 94,29 %
07.06.2021 22:04 18,4 C 16,1 C 13,9 C 85 % 1023,0 hPa 0,0 l/m 0 min 0 min 0 W/m 0,0 km/h (0 Bft) 95,74 %
07.06.2021 22:06 18,3 C 16,1 C 13,9 C 85 % 1022,9 hPa 0,0 l/m 0 min 0 min 0 W/m 0,0 km/h (0 Bft) 96,55 %
07.06.2021 22:08 18,3 C 16,1 C 13,9 C 85 % 1022,9 hPa 0,0 l/m 0 min 0 min 0 W/m 0,0 km/h (0 Bft) 95,74 %
07.06.2021 22:10 18,2 C 16,1 C 13,9 C 85 % 1023,0 hPa 0,0 l/m 0 min 0 min 0 W/m 0,0 km/h (0 Bft) 94,29 %
07.06.2021 22:12 18,1 C 15,6 C 13,9 C 85 % 1023,0 hPa 0,0 l/m 0 min 0 min 0 W/m 0,0 km/h (0 Bft) 95,74 %
07.06.2021 22:14 18,1 C 15,6 C 13,9 C 86 % 1023,0 hPa 0,0 l/m 0 min 0 min 0 W/m 0,0 km/h (0 Bft) 97,87 %
07.06.2021 22:16 18,0 C 15,6 C 13,9 C 86 % 1023,0 hPa 0,0 l/m 0 min 0 min 0 W/m 0,0 km/h (0 Bft) 97,87 %
07.06.2021 22:18 18,0 C 15,6 C 13,9 C 86 % 1023,0 hPa 0,0 l/m 0 min 0 min 0 W/m 0,0 km/h (0 Bft) 97,83 %
07.06.2021 22:20 17,9 C 15,6 C 13,9 C 86 % 1023,0 hPa 0,0 l/m 0 min 0 min 0 W/m 0,0 km/h (0 Bft) 97,87 %
07.06.2021 22:22 17,8 C 15,6 C 13,9 C 86 % 1023,1 hPa 0,0 l/m 0 min 0 min 0 W/m 0,0 km/h (0 Bft) 97,87 %
07.06.2021 22:24 17,8 C 15,6 C 13,9 C 86 % 1023,0 hPa 0,0 l/m 0 min 0 min 0 W/m 0,0 km/h (0 Bft) 97,87 %
07.06.2021 22:26 17,7 C 15,6 C 13,9 C 86 % 1023,1 hPa 0,0 l/m 0 min 0 min 0 W/m 0,0 km/h (0 Bft) 97,87 %
07.06.2021 22:28 17,6 C 15,6 C 13,9 C 87 % 1023,0 hPa 0,0 l/m 0 min 0 min 0 W/m 0,0 km/h (0 Bft) 97,87 %
07.06.2021 22:30 17,6 C 15,6 C 13,4 C 87 % 1023,1 hPa 0,0 l/m 0 min 0 min 0 W/m 0,0 km/h (0 Bft) 100,00 %
07.06.2021 22:32 17,5 C 15,0 C 13,4 C 87 % 1023,0 hPa 0,0 l/m 0 min 0 min 0 W/m 0,0 km/h (0 Bft) 100,00 %
07.06.2021 22:34 17,5 C 15,0 C 13,4 C 87 % 1023,1 hPa 0,0 l/m 0 min 0 min 0 W/m 0,0 km/h (0 Bft) 100,00 %
07.06.2021 22:36 17,4 C 15,0 C 13,4 C 87 % 1023,0 hPa 0,0 l/m 0 min 0 min 0 W/m 0,0 km/h (0 Bft) 100,00 %
07.06.2021 22:38 17,4 C 15,0 C 13,4 C 87 % 1023,1 hPa 0,0 l/m 0 min 0 min 0 W/m 0,0 km/h (0 Bft) 100,00 %
07.06.2021 22:40 17,3 C 15,0 C 13,4 C 88 % 1023,1 hPa 0,0 l/m 0 min 0 min 0 W/m 0,0 km/h (0 Bft) 100,00 %
07.06.2021 22:42 17,2 C 15,0 C 13,4 C 88 % 1023,0 hPa 0,0 l/m 0 min 0 min 0 W/m 0,0 km/h (0 Bft) 100,00 %
07.06.2021 22:44 17,1 C 15,0 C 13,4 C 88 % 1023,1 hPa 0,0 l/m 0 min 0 min 0 W/m 0,0 km/h (0 Bft) 100,00 %
07.06.2021 22:46 17,1 C 15,0 C 13,4 C 88 % 1023,0 hPa 0,0 l/m 0 min 0 min 0 W/m 0,0 km/h (0 Bft) 100,00 %
07.06.2021 22:48 17,0 C 15,0 C 13,4 C 88 % 1023,1 hPa 0,0 l/m 0 min 0 min 0 W/m 0,0 km/h (0 Bft) 100,00 %
07.06.2021 22:50 17,0 C 15,0 C 13,4 C 88 % 1023,1 hPa 0,0 l/m 0 min 0 min 0 W/m 0,0 km/h (0 Bft) 97,87 %
07.06.2021 22:52 16,9 C 15,0 C 13,4 C 88 % 1023,1 hPa 0,0 l/m 0 min 0 min 0 W/m 0,0 km/h (0 Bft) 100,00 %
07.06.2021 22:54 16,9 C 15,0 C 13,4 C 88 % 1023,1 hPa 0,0 l/m 0 min 0 min 0 W/m 0,0 km/h (0 Bft) 97,83 %
07.06.2021 22:56 16,9 C 15,0 C 13,4 C 89 % 1023,1 hPa 0,0 l/m 0 min 0 min 0 W/m 0,0 km/h (0 Bft) 100,00 %
07.06.2021 22:58 16,8 C 15,0 C 13,4 C 89 % 1023,1 hPa 0,0 l/m 0 min 0 min 0 W/m 0,0 km/h (0 Bft) 100,00 %
07.06.2021 23:00 16,8 C 15,0 C 13,4 C 89 % 1023,1 hPa 0,0 l/m 0 min 0 min 0 W/m 0,0 km/h (0 Bft) 100,00 %
07.06.2021 23:02 16,7 C 15,0 C 13,4 C 89 % 1023,2 hPa 0,0 l/m 0 min 0 min 0 W/m 0,0 km/h (0 Bft) 100,00 %
07.06.2021 23:04 16,6 C 15,0 C 13,4 C 89 % 1023,1 hPa 0,0 l/m 0 min 0 min 0 W/m 0,0 km/h (0 Bft) 100,00 %
07.06.2021 23:06 16,6 C 15,0 C 13,4 C 89 % 1023,2 hPa 0,0 l/m 0 min 0 min 0 W/m 0,0 km/h (0 Bft) 100,00 %
07.06.2021 23:08 16,5 C 15,0 C 13,4 C 89 % 1023,2 hPa 0,0 l/m 0 min 0 min 0 W/m 0,0 km/h (0 Bft) 100,00 %
07.06.2021 23:10 16,5 C 15,0 C 12,8 C 89 % 1023,2 hPa 0,0 l/m 0 min 0 min 0 W/m 0,0 km/h (0 Bft) 100,00 %
07.06.2021 23:12 16,5 C 14,4 C 12,8 C 89 % 1023,2 hPa 0,0 l/m 0 min 0 min 0 W/m 3,2 km/h (1 Bft) 100,00 %
07.06.2021 23:14 16,4 C 14,4 C 12,8 C 89 % 1023,1 hPa 0,0 l/m 0 min 0 min 0 W/m 0,0 km/h (0 Bft) 100,00 %
07.06.2021 23:16 16,4 C 14,4 C 12,8 C 89 % 1023,2 hPa 0,0 l/m 0 min 0 min 0 W/m 0,0 km/h (0 Bft) 100,00 %
07.06.2021 23:18 16,3 C 14,4 C 12,8 C 89 % 1023,1 hPa 0,0 l/m 0 min 0 min 0 W/m 0,0 km/h (0 Bft) 100,00 %
07.06.2021 23:20 16,3 C 14,4 C 12,8 C 89 % 1023,1 hPa 0,0 l/m 0 min 0 min 0 W/m 0,0 km/h (0 Bft) 100,00 %
07.06.2021 23:22 16,3 C 14,4 C 12,8 C 89 % 1023,1 hPa 0,0 l/m 0 min 0 min 0 W/m 0,0 km/h (0 Bft) 100,00 %
07.06.2021 23:24 16,3 C 14,4 C 12,8 C 89 % 1023,1 hPa 0,0 l/m 0 min 0 min 0 W/m 0,0 km/h (0 Bft) 100,00 %
07.06.2021 23:26 16,2 C 14,4 C 12,8 C 90 % 1023,2 hPa 0,0 l/m 0 min 0 min 0 W/m 0,0 km/h (0 Bft) 100,00 %
07.06.2021 23:28 16,1 C 14,4 C 12,8 C 90 % 1023,2 hPa 0,0 l/m 0 min 0 min 0 W/m 0,0 km/h (0 Bft) 97,87 %
07.06.2021 23:30 16,1 C 14,4 C 12,8 C 90 % 1023,2 hPa 0,0 l/m 0 min 0 min 0 W/m 3,2 km/h (1 Bft) 100,00 %
07.06.2021 23:32 16,1 C 14,4 C 12,8 C 90 % 1023,1 hPa 0,0 l/m 0 min 0 min 0 W/m 0,0 km/h (0 Bft) 100,00 %
07.06.2021 23:34 16,0 C 14,4 C 12,8 C 90 % 1023,2 hPa 0,0 l/m 0 min 0 min 0 W/m 0,0 km/h (0 Bft) 97,87 %
07.06.2021 23:36 16,0 C 14,4 C 12,8 C 90 % 1023,2 hPa 0,0 l/m 0 min 0 min 0 W/m 0,0 km/h (0 Bft) 100,00 %
07.06.2021 23:38 16,0 C 14,4 C 12,8 C 90 % 1023,2 hPa 0,0 l/m 0 min 0 min 0 W/m 0,0 km/h (0 Bft) 100,00 %
07.06.2021 23:40 15,9 C 14,4 C 12,8 C 90 % 1023,1 hPa 0,0 l/m 0 min 0 min 0 W/m 0,0 km/h (0 Bft) 100,00 %
07.06.2021 23:42 15,9 C 14,4 C 12,8 C 91 % 1023,2 hPa 0,0 l/m 0 min 0 min 0 W/m 0,0 km/h (0 Bft) 100,00 %
07.06.2021 23:44 15,9 C 14,4 C 12,8 C 91 % 1023,2 hPa 0,0 l/m 0 min 0 min 0 W/m 0,0 km/h (0 Bft) 100,00 %
07.06.2021 23:46 15,9 C 14,4 C 12,8 C 91 % 1023,2 hPa 0,0 l/m 0 min 0 min 0 W/m 0,0 km/h (0 Bft) 100,00 %
07.06.2021 23:48 15,8 C 14,4 C 12,8 C 91 % 1023,2 hPa 0,0 l/m 0 min 0 min 0 W/m 0,0 km/h (0 Bft) 100,00 %
07.06.2021 23:50 15,8 C 14,4 C 12,8 C 91 % 1023,2 hPa 0,0 l/m 0 min 0 min 0 W/m 0,0 km/h (0 Bft) 93,48 %
07.06.2021 23:52 15,8 C 14,4 C 12,8 C 91 % 1023,2 hPa 0,0 l/m 0 min 0 min 0 W/m 0,0 km/h (0 Bft) 100,00 %
07.06.2021 23:54 15,8 C 14,4 C 12,8 C 91 % 1023,2 hPa 0,0 l/m 0 min 0 min 0 W/m 0,0 km/h (0 Bft) 100,00 %
07.06.2021 23:56 15,7 C 13,9 C 12,8 C 91 % 1023,2 hPa 0,0 l/m 0 min 0 min 0 W/m 0,0 km/h (0 Bft) 97,87 %
07.06.2021 23:58 15,6 C 13,9 C 12,8 C 91 % 1023,2 hPa 0,0 l/m 0 min 0 min 0 W/m 0,0 km/h (0 Bft) 100,00 %
_ Min-Zeit 05:48 05:02 04:46 18:08 19:14 - - - - 02:58 21:52
Minimum _ 14,0 C 12,8 C 12,3 C 67 % 1022,3 hPa - - - - 0,0 km/h (0 Bft) 91,30 %
_ Max-Zeit 18:08 17:44 10:56 06:58 09:12 00:00 18:08 00:00 11:40 10:36 01:18
Maximum _ 22,9 C 27,8 C 22,8 C 98 % 1024,0 hPa 0,0 l/m 4 min 0 min 1008 W/m 19,3 km/h
N-NW (3 Bft)
100,00 %
Durchschnitt _ 18,0 C 18,1 C 15,9 C 84 % 1023,3 hPa #0,0 l/m #2:28 h #0 min. 237 W/m 6,8 km/h (2 Bft) 97,73 %
© 2021 W. Hausmann